Wetterdaten: Dienstag, 05.02.2013
Datum Zeit Temp. Aussen +5cm Feuchte Auss BlattFeu 1 Luftdruck Regen Sonnenschein UV Solar Windben
05.02.2013 00:00 6,2 C 4,6 C 85 % 0 lf 1008,2 hPa 0,0 l/m 0 min 0,0 UV-I 0 W/m 18,0 km/h (3 Bft)
05.02.2013 00:02 6,2 C 4,6 C 85 % 0 lf 1008,0 hPa 0,0 l/m 0 min 0,0 UV-I 0 W/m 12,9 km/h (3 Bft)
05.02.2013 00:06 6,2 C 4,6 C 86 % 0 lf 1008,0 hPa 0,0 l/m 0 min 0,0 UV-I 0 W/m 20,6 km/h (4 Bft)
05.02.2013 00:08 6,2 C 4,6 C 86 % 0 lf 1007,9 hPa 0,0 l/m 0 min 0,0 UV-I 0 W/m 18,0 km/h (3 Bft)
05.02.2013 00:10 6,2 C 4,6 C 86 % 0 lf 1008,0 hPa 0,0 l/m 0 min 0,0 UV-I 0 W/m 15,4 km/h (3 Bft)
05.02.2013 00:12 6,1 C 4,6 C 86 % 0 lf 1008,0 hPa 0,0 l/m 0 min 0,0 UV-I 0 W/m 15,4 km/h (3 Bft)
05.02.2013 00:14 6,1 C 4,6 C 86 % 0 lf 1007,9 hPa 0,0 l/m 0 min 0,0 UV-I 0 W/m 15,4 km/h (3 Bft)
05.02.2013 00:16 6,1 C 4,6 C 87 % 0 lf 1008,0 hPa 0,0 l/m 0 min 0,0 UV-I 0 W/m 23,2 km/h (4 Bft)
05.02.2013 00:18 6,1 C 4,6 C 87 % 0 lf 1008,0 hPa 0,0 l/m 0 min 0,0 UV-I 0 W/m 23,2 km/h (4 Bft)
05.02.2013 00:20 6,1 C 4,6 C 87 % 0 lf 1008,0 hPa 0,0 l/m 0 min 0,0 UV-I 0 W/m 18,0 km/h (3 Bft)
05.02.2013 00:22 6,1 C 4,6 C 87 % 0 lf 1007,9 hPa 0,0 l/m 0 min 0,0 UV-I 0 W/m 12,9 km/h (3 Bft)
05.02.2013 00:24 6,1 C 4,6 C 87 % 0 lf 1007,8 hPa 0,0 l/m 0 min 0,0 UV-I 0 W/m 12,9 km/h (3 Bft)
05.02.2013 00:26 6,0 C 4,6 C 87 % 0 lf 1007,8 hPa 0,0 l/m 0 min 0,0 UV-I 0 W/m 20,6 km/h (4 Bft)
05.02.2013 00:28 6,0 C 4,6 C 88 % 0 lf 1007,8 hPa 0,0 l/m 0 min 0,0 UV-I 0 W/m 15,4 km/h (3 Bft)
05.02.2013 00:30 6,0 C 4,6 C 88 % 0 lf 1007,8 hPa 0,0 l/m 0 min 0,0 UV-I 0 W/m 12,9 km/h (3 Bft)
05.02.2013 00:32 5,9 C 4,6 C 88 % 0 lf 1007,7 hPa 0,0 l/m 0 min 0,0 UV-I 0 W/m 20,6 km/h (4 Bft)
05.02.2013 00:34 5,9 C 4,6 C 88 % 0 lf 1007,8 hPa 0,0 l/m 0 min 0,0 UV-I 0 W/m 12,9 km/h (3 Bft)
05.02.2013 00:36 5,9 C 4,6 C 88 % 0 lf 1007,8 hPa 0,0 l/m 0 min 0,0 UV-I 0 W/m 15,4 km/h (3 Bft)
05.02.2013 00:38 5,9 C 4,6 C 88 % 0 lf 1007,7 hPa 0,0 l/m 0 min 0,0 UV-I 0 W/m 25,7 km/h (4 Bft)
05.02.2013 00:40 5,9 C 4,6 C 88 % 0 lf 1007,7 hPa 0,0 l/m 0 min 0,0 UV-I 0 W/m 18,0 km/h (3 Bft)
05.02.2013 00:42 5,9 C 4,6 C 88 % 0 lf 1007,8 hPa 0,0 l/m 0 min 0,0 UV-I 0 W/m 15,4 km/h (3 Bft)
05.02.2013 00:44 5,9 C 4,6 C 88 % 0 lf 1007,7 hPa 0,0 l/m 0 min 0,0 UV-I 0 W/m 23,2 km/h (4 Bft)
05.02.2013 00:46 5,9 C 4,6 C 88 % 0 lf 1007,7 hPa 0,0 l/m 0 min 0,0 UV-I 0 W/m 12,9 km/h (3 Bft)
05.02.2013 00:48 5,9 C 4,6 C 89 % 0 lf 1007,7 hPa 0,0 l/m 0 min 0,0 UV-I 0 W/m 12,9 km/h (3 Bft)
05.02.2013 00:50 5,8 C 4,6 C 89 % 0 lf 1007,6 hPa 0,0 l/m 0 min 0,0 UV-I 0 W/m 18,0 km/h (3 Bft)
05.02.2013 00:52 5,8 C 4,6 C 89 % 0 lf 1007,5 hPa 0,0 l/m 0 min 0,0 UV-I 0 W/m 18,0 km/h (3 Bft)
05.02.2013 00:54 5,8 C 4,6 C 89 % 0 lf 1007,5 hPa 0,0 l/m 0 min 0,0 UV-I 0 W/m 15,4 km/h (3 Bft)
05.02.2013 00:56 5,8 C 4,6 C 89 % 0 lf 1007,5 hPa 0,0 l/m 0 min 0,0 UV-I 0 W/m 20,6 km/h (4 Bft)
05.02.2013 00:58 5,8 C 4,6 C 89 % 0 lf 1007,4 hPa 0,0 l/m 0 min 0,0 UV-I 0 W/m 12,9 km/h (3 Bft)
05.02.2013 01:00 5,8 C 4,6 C 89 % 0 lf 1007,4 hPa 0,0 l/m 0 min 0,0 UV-I 0 W/m 20,6 km/h (4 Bft)
05.02.2013 01:02 5,8 C 4,6 C 89 % 0 lf 1007,3 hPa 0,0 l/m 0 min 0,0 UV-I 0 W/m 10,3 km/h (2 Bft)
05.02.2013 01:06 5,8 C 4,6 C 89 % 0 lf 1007,3 hPa 0,0 l/m 0 min 0,0 UV-I 0 W/m 15,4 km/h (3 Bft)
05.02.2013 01:08 5,8 C 4,6 C 89 % 0 lf 1007,3 hPa 0,0 l/m 0 min 0,0 UV-I 0 W/m 18,0 km/h (3 Bft)
05.02.2013 01:10 5,8 C 4,6 C 89 % 0 lf 1007,2 hPa 0,0 l/m 0 min 0,0 UV-I 0 W/m 20,6 km/h (4 Bft)
05.02.2013 01:12 5,8 C 4,6 C 89 % 0 lf 1007,1 hPa 0,0 l/m 0 min 0,0 UV-I 0 W/m 20,6 km/h (4 Bft)
05.02.2013 01:14 5,8 C 4,6 C 89 % 0 lf 1007,1 hPa 0,0 l/m 0 min 0,0 UV-I 0 W/m 20,6 km/h (4 Bft)
05.02.2013 01:16 5,8 C 4,6 C 89 % 0 lf 1007,1 hPa 0,0 l/m 0 min 0,0 UV-I 0 W/m 10,3 km/h (2 Bft)
05.02.2013 01:18 5,8 C 4,6 C 89 % 0 lf 1007,1 hPa 0,0 l/m 0 min 0,0 UV-I 0 W/m 10,3 km/h (2 Bft)
05.02.2013 01:20 5,8 C 4,6 C 89 % 0 lf 1007,0 hPa 0,0 l/m 0 min 0,0 UV-I 0 W/m 12,9 km/h (3 Bft)
05.02.2013 01:22 5,8 C 4,6 C 89 % 0 lf 1007,0 hPa 0,0 l/m 0 min 0,0 UV-I 0 W/m 23,2 km/h (4 Bft)
05.02.2013 01:24 5,8 C 4,6 C 89 % 0 lf 1007,0 hPa 0,0 l/m 0 min 0,0 UV-I 0 W/m 20,6 km/h (4 Bft)
05.02.2013 01:26 5,8 C 4,6 C 89 % 0 lf 1007,0 hPa 0,0 l/m 0 min 0,0 UV-I 0 W/m 12,9 km/h (3 Bft)
05.02.2013 01:28 5,8 C 4,6 C 88 % 0 lf 1007,1 hPa 0,0 l/m 0 min 0,0 UV-I 0 W/m 18,0 km/h (3 Bft)
05.02.2013 01:30 5,8 C 4,6 C 89 % 0 lf 1007,0 hPa 0,0 l/m 0 min 0,0 UV-I 0 W/m 12,9 km/h (3 Bft)
05.02.2013 01:32 5,8 C 4,6 C 89 % 0 lf 1006,9 hPa 0,0 l/m 0 min 0,0 UV-I 0 W/m 12,9 km/h (3 Bft)
05.02.2013 01:34 5,8 C 4,6 C 88 % 0 lf 1006,7 hPa 0,0 l/m 0 min 0,0 UV-I 0 W/m 15,4 km/h (3 Bft)
05.02.2013 01:36 5,8 C 4,6 C 88 % 0 lf 1006,8 hPa 0,0 l/m 0 min 0,0 UV-I 0 W/m 10,3 km/h (2 Bft)
05.02.2013 01:38 5,8 C 4,6 C 88 % 0 lf 1006,7 hPa 0,0 l/m 0 min 0,0 UV-I 0 W/m 18,0 km/h (3 Bft)
05.02.2013 01:40 5,8 C 4,6 C 88 % 0 lf 1006,7 hPa 0,0 l/m 0 min 0,0 UV-I 0 W/m 12,9 km/h (3 Bft)
05.02.2013 01:42 5,8 C 4,6 C 88 % 0 lf 1006,7 hPa 0,0 l/m 0 min 0,0 UV-I 0 W/m 20,6 km/h (4 Bft)
05.02.2013 01:44 5,8 C 4,6 C 88 % 0 lf 1006,6 hPa 0,0 l/m 0 min 0,0 UV-I 0 W/m 15,4 km/h (3 Bft)
05.02.2013 01:46 5,8 C 4,6 C 88 % 0 lf 1006,5 hPa 0,0 l/m 0 min 0,0 UV-I 0 W/m 23,2 km/h (4 Bft)
05.02.2013 01:48 5,8 C 4,6 C 88 % 0 lf 1006,5 hPa 0,0 l/m 0 min 0,0 UV-I 0 W/m 15,4 km/h (3 Bft)
05.02.2013 01:50 5,8 C 4,6 C 88 % 0 lf 1006,5 hPa 0,0 l/m 0 min 0,0 UV-I 0 W/m 10,3 km/h (2 Bft)
05.02.2013 01:52 5,8 C 4,6 C 88 % 0 lf 1006,5 hPa 0,0 l/m 0 min 0,0 UV-I 0 W/m 7,7 km/h (2 Bft)
05.02.2013 01:54 5,8 C 4,6 C 88 % 0 lf 1006,7 hPa 0,0 l/m 0 min 0,0 UV-I 0 W/m 28,3 km/h (4 Bft)
05.02.2013 01:56 5,8 C 4,6 C 88 % 0 lf 1006,5 hPa 0,0 l/m 0 min 0,0 UV-I 0 W/m 18,0 km/h (3 Bft)
05.02.2013 01:58 5,8 C 4,6 C 88 % 0 lf 1006,4 hPa 0,0 l/m 0 min 0,0 UV-I 0 W/m 12,9 km/h (3 Bft)
05.02.2013 02:00 5,8 C 4,6 C 88 % 0 lf 1006,4 hPa 0,0 l/m 0 min 0,0 UV-I 0 W/m 15,4 km/h (3 Bft)
05.02.2013 02:02 5,8 C 4,6 C 88 % 0 lf 1006,4 hPa 0,0 l/m 0 min 0,0 UV-I 0 W/m 10,3 km/h (2 Bft)
05.02.2013 02:06 5,8 C 4,6 C 88 % 0 lf 1006,3 hPa 0,0 l/m 0 min 0,0 UV-I 0 W/m 23,2 km/h (4 Bft)
05.02.2013 02:08 5,9 C 4,6 C 88 % 0 lf 1006,3 hPa 0,0 l/m 0 min 0,0 UV-I 0 W/m 15,4 km/h (3 Bft)
05.02.2013 02:10 5,9 C 4,6 C 88 % 0 lf 1006,3 hPa 0,0 l/m 0 min 0,0 UV-I 0 W/m 12,9 km/h (3 Bft)
05.02.2013 02:12 5,9 C 4,6 C 88 % 0 lf 1006,2 hPa 0,0 l/m 0 min 0,0 UV-I 0 W/m 18,0 km/h (3 Bft)
05.02.2013 02:14 5,9 C 4,6 C 88 % 0 lf 1006,2 hPa 0,0 l/m 0 min 0,0 UV-I 0 W/m 18,0 km/h (3 Bft)
05.02.2013 02:16 5,9 C 4,6 C 88 % 0 lf 1006,2 hPa 0,0 l/m 0 min 0,0 UV-I 0 W/m 7,7 km/h (2 Bft)
05.02.2013 02:18 5,9 C 4,6 C 88 % 0 lf 1006,1 hPa 0,0 l/m 0 min 0,0 UV-I 0 W/m 20,6 km/h (4 Bft)
05.02.2013 02:20 5,9 C 4,6 C 87 % 0 lf 1006,1 hPa 0,0 l/m 0 min 0,0 UV-I 0 W/m 15,4 km/h (3 Bft)
05.02.2013 02:22 5,9 C 4,6 C 87 % 0 lf 1006,1 hPa 0,0 l/m 0 min 0,0 UV-I 0 W/m 12,9 km/h (3 Bft)
05.02.2013 02:24 5,9 C 4,6 C 88 % 0 lf 1006,0 hPa 0,0 l/m 0 min 0,0 UV-I 0 W/m 12,9 km/h (3 Bft)
05.02.2013 02:26 5,9 C 4,6 C 88 % 0 lf 1006,0 hPa 0,0 l/m 0 min 0,0 UV-I 0 W/m 18,0 km/h (3 Bft)
05.02.2013 02:28 5,9 C 4,6 C 88 % 0 lf 1005,9 hPa 0,0 l/m 0 min 0,0 UV-I 0 W/m 12,9 km/h (3 Bft)
05.02.2013 02:30 5,9 C 4,6 C 88 % 0 lf 1006,0 hPa 0,0 l/m 0 min 0,0 UV-I 0 W/m 12,9 km/h (3 Bft)
05.02.2013 02:32 5,9 C 4,6 C 87 % 0 lf 1006,1 hPa 0,0 l/m 0 min 0,0 UV-I 0 W/m 18,0 km/h (3 Bft)
05.02.2013 02:34 5,9 C 4,6 C 88 % 0 lf 1006,0 hPa 0,0 l/m 0 min 0,0 UV-I 0 W/m 18,0 km/h (3 Bft)
05.02.2013 02:36 5,8 C 4,6 C 88 % 0 lf 1005,9 hPa 0,0 l/m 0 min 0,0 UV-I 0 W/m 18,0 km/h (3 Bft)
05.02.2013 02:38 5,8 C 4,6 C 88 % 0 lf 1006,0 hPa 0,0 l/m 0 min 0,0 UV-I 0 W/m 18,0 km/h (3 Bft)
05.02.2013 02:40 5,8 C 4,6 C 87 % 0 lf 1006,1 hPa 0,0 l/m 0 min 0,0 UV-I 0 W/m 12,9 km/h (3 Bft)
05.02.2013 02:42 5,8 C 4,6 C 87 % 0 lf 1005,9 hPa 0,0 l/m 0 min 0,0 UV-I 0 W/m 23,2 km/h (4 Bft)
05.02.2013 02:44 5,8 C 4,6 C 87 % 0 lf 1005,8 hPa 0,0 l/m 0 min 0,0 UV-I 0 W/m 12,9 km/h (3 Bft)
05.02.2013 02:46 5,8 C 4,6 C 87 % 0 lf 1006,1 hPa 0,0 l/m 0 min 0,0 UV-I 0 W/m 28,3 km/h (4 Bft)
05.02.2013 02:48 5,8 C 4,6 C 87 % 0 lf 1005,7 hPa 0,0 l/m 0 min 0,0 UV-I 0 W/m 30,9 km/h (5 Bft)
05.02.2013 02:50 5,8 C 4,6 C 87 % 0 lf 1005,7 hPa 0,0 l/m 0 min 0,0 UV-I 0 W/m 23,2 km/h (4 Bft)
05.02.2013 02:52 5,8 C 4,6 C 87 % 0 lf 1005,6 hPa 0,0 l/m 0 min 0,0 UV-I 0 W/m 23,2 km/h (4 Bft)
05.02.2013 02:54 5,8 C 4,6 C 87 % 0 lf 1005,6 hPa 0,0 l/m 0 min 0,0 UV-I 0 W/m 18,0 km/h (3 Bft)
05.02.2013 02:56 5,8 C 4,6 C 87 % 0 lf 1005,7 hPa 0,0 l/m 0 min 0,0 UV-I 0 W/m 18,0 km/h (3 Bft)
05.02.2013 02:58 5,8 C 4,6 C 87 % 0 lf 1005,6 hPa 0,0 l/m 0 min 0,0 UV-I 0 W/m 18,0 km/h (3 Bft)
05.02.2013 03:00 5,8 C 4,6 C 87 % 0 lf 1005,3 hPa 0,0 l/m 0 min 0,0 UV-I 0 W/m 15,4 km/h (3 Bft)
05.02.2013 03:02 5,8 C 4,6 C 87 % 0 lf 1005,2 hPa 0,0 l/m 0 min 0,0 UV-I 0 W/m 15,4 km/h (3 Bft)
05.02.2013 03:06 5,8 C 4,6 C 86 % 0 lf 1005,1 hPa 0,0 l/m 0 min 0,0 UV-I 0 W/m 25,7 km/h (4 Bft)
05.02.2013 03:08 5,8 C 4,6 C 86 % 0 lf 1005,3 hPa 0,0 l/m 0 min 0,0 UV-I 0 W/m 10,3 km/h (2 Bft)
05.02.2013 03:10 5,8 C 4,6 C 86 % 0 lf 1005,3 hPa 0,0 l/m 0 min 0,0 UV-I 0 W/m 10,3 km/h (2 Bft)
05.02.2013 03:12 5,8 C 4,6 C 86 % 0 lf 1005,2 hPa 0,0 l/m 0 min 0,0 UV-I 0 W/m 20,6 km/h (4 Bft)
05.02.2013 03:14 5,8 C 4,6 C 86 % 0 lf 1005,2 hPa 0,0 l/m 0 min 0,0 UV-I 0 W/m 25,7 km/h (4 Bft)
05.02.2013 03:16 5,8 C 4,6 C 86 % 0 lf 1005,1 hPa 0,0 l/m 0 min 0,0 UV-I 0 W/m 20,6 km/h (4 Bft)
05.02.2013 03:18 5,8 C 4,6 C 86 % 0 lf 1005,2 hPa 0,0 l/m 0 min 0,0 UV-I 0 W/m 15,4 km/h (3 Bft)
05.02.2013 03:20 5,8 C 4,6 C 86 % 0 lf 1005,1 hPa 0,0 l/m 0 min 0,0 UV-I 0 W/m 15,4 km/h (3 Bft)
05.02.2013 03:22 5,8 C 4,6 C 85 % 0 lf 1005,0 hPa 0,0 l/m 0 min 0,0 UV-I 0 W/m 15,4 km/h (3 Bft)
05.02.2013 03:24 5,8 C 4,6 C 85 % 0 lf 1004,9 hPa 0,0 l/m 0 min 0,0 UV-I 0 W/m 12,9 km/h (3 Bft)
05.02.2013 03:26 5,8 C 4,6 C 85 % 0 lf 1004,9 hPa 0,0 l/m 0 min 0,0 UV-I 0 W/m 12,9 km/h (3 Bft)
05.02.2013 03:28 5,8 C 4,6 C 85 % 0 lf 1004,8 hPa 0,0 l/m 0 min 0,0 UV-I 0 W/m 15,4 km/h (3 Bft)
05.02.2013 03:30 5,8 C 4,6 C 85 % 0 lf 1004,8 hPa 0,0 l/m 0 min 0,0 UV-I 0 W/m 18,0 km/h (3 Bft)
05.02.2013 03:32 5,8 C 4,6 C 85 % 0 lf 1004,6 hPa 0,0 l/m 0 min 0,0 UV-I 0 W/m 23,2 km/h (4 Bft)
05.02.2013 03:34 5,8 C 4,6 C 85 % 0 lf 1004,5 hPa 0,0 l/m 0 min 0,0 UV-I 0 W/m 20,6 km/h (4 Bft)
05.02.2013 03:36 5,8 C 4,6 C 85 % 0 lf 1004,4 hPa 0,0 l/m 0 min 0,0 UV-I 0 W/m 30,9 km/h (5 Bft)
05.02.2013 03:38 5,8 C 4,6 C 85 % 0 lf 1004,3 hPa 0,0 l/m 0 min 0,0 UV-I 0 W/m 15,4 km/h (3 Bft)
05.02.2013 03:40 5,8 C 4,0 C 85 % 0 lf 1004,5 hPa 0,0 l/m 0 min 0,0 UV-I 0 W/m 30,9 km/h (5 Bft)
05.02.2013 03:42 5,7 C 4,0 C 85 % 0 lf 1004,2 hPa 0,0 l/m 0 min 0,0 UV-I 0 W/m 12,9 km/h (3 Bft)
05.02.2013 03:44 5,7 C 4,0 C 85 % 0 lf 1004,4 hPa 0,0 l/m 0 min 0,0 UV-I 0 W/m 20,6 km/h (4 Bft)
05.02.2013 03:46 5,7 C 4,6 C 85 % 0 lf 1004,0 hPa 0,0 l/m 0 min 0,0 UV-I 0 W/m 33,5 km/h (5 Bft)
05.02.2013 03:48 5,7 C 4,6 C 85 % 0 lf 1004,0 hPa 0,0 l/m 0 min 0,0 UV-I 0 W/m 23,2 km/h (4 Bft)
05.02.2013 03:50 5,7 C 4,0 C 85 % 0 lf 1003,9 hPa 0,0 l/m 0 min 0,0 UV-I 0 W/m 18,0 km/h (3 Bft)
05.02.2013 03:52 5,7 C 4,0 C 85 % 0 lf 1003,9 hPa 0,0 l/m 0 min 0,0 UV-I 0 W/m 25,7 km/h (4 Bft)
05.02.2013 03:54 5,7 C 4,6 C 86 % 0 lf 1003,9 hPa 0,0 l/m 0 min 0,0 UV-I 0 W/m 18,0 km/h (3 Bft)
05.02.2013 03:56 5,7 C 4,6 C 86 % 0 lf 1003,9 hPa 0,0 l/m 0 min 0,0 UV-I 0 W/m 23,2 km/h (4 Bft)
05.02.2013 03:58 5,7 C 4,6 C 86 % 0 lf 1004,1 hPa 0,0 l/m 0 min 0,0 UV-I 0 W/m 28,3 km/h (4 Bft)
05.02.2013 04:00 5,7 C 4,6 C 86 % 0 lf 1004,0 hPa 0,0 l/m 0 min 0,0 UV-I 0 W/m 20,6 km/h (4 Bft)
05.02.2013 04:02 5,7 C 4,6 C 86 % 0 lf 1004,0 hPa 0,0 l/m 0 min 0,0 UV-I 0 W/m 12,9 km/h (3 Bft)
05.02.2013 04:04 5,7 C 4,6 C 86 % 0 lf 1004,0 hPa 0,0 l/m 0 min 0,0 UV-I 0 W/m 23,2 km/h (4 Bft)
05.02.2013 04:08 5,7 C 4,6 C 86 % 0 lf 1004,0 hPa 0,0 l/m 0 min 0,0 UV-I 0 W/m 20,6 km/h (4 Bft)
05.02.2013 04:10 5,7 C 4,6 C 86 % 0 lf 1003,9 hPa 0,0 l/m 0 min 0,0 UV-I 0 W/m 18,0 km/h (3 Bft)
05.02.2013 04:12 5,7 C 4,6 C 86 % 0 lf 1003,8 hPa 0,0 l/m 0 min 0,0 UV-I 0 W/m 23,2 km/h (4 Bft)
05.02.2013 04:14 5,7 C 4,6 C 86 % 0 lf 1003,7 hPa 0,0 l/m 0 min 0,0 UV-I 0 W/m 10,3 km/h (2 Bft)
05.02.2013 04:16 5,7 C 4,6 C 86 % 0 lf 1003,7 hPa 0,0 l/m 0 min 0,0 UV-I 0 W/m 23,2 km/h (4 Bft)
05.02.2013 04:18 5,7 C 4,6 C 86 % 0 lf 1003,6 hPa 0,0 l/m 0 min 0,0 UV-I 0 W/m 20,6 km/h (4 Bft)
05.02.2013 04:20 5,7 C 4,6 C 86 % 0 lf 1003,5 hPa 0,0 l/m 0 min 0,0 UV-I 0 W/m 20,6 km/h (4 Bft)
05.02.2013 04:22 5,7 C 4,0 C 86 % 0 lf 1003,3 hPa 0,0 l/m 0 min 0,0 UV-I 0 W/m 15,4 km/h (3 Bft)
05.02.2013 04:24 5,7 C 4,0 C 86 % 0 lf 1003,1 hPa 0,0 l/m 0 min 0,0 UV-I 0 W/m 7,7 km/h (2 Bft)
05.02.2013 04:26 5,7 C 4,0 C 86 % 0 lf 1003,4 hPa 0,0 l/m 0 min 0,0 UV-I 0 W/m 15,4 km/h (3 Bft)
05.02.2013 04:28 5,6 C 4,0 C 86 % 0 lf 1003,4 hPa 0,0 l/m 0 min 0,0 UV-I 0 W/m 23,2 km/h (4 Bft)
05.02.2013 04:30 5,6 C 4,0 C 86 % 0 lf 1003,2 hPa 0,0 l/m 0 min 0,0 UV-I 0 W/m 12,9 km/h (3 Bft)
05.02.2013 04:32 5,6 C 4,0 C 86 % 0 lf 1003,1 hPa 0,0 l/m 0 min 0,0 UV-I 0 W/m 18,0 km/h (3 Bft)
05.02.2013 04:34 5,6 C 4,0 C 86 % 0 lf 1003,0 hPa 0,0 l/m 0 min 0,0 UV-I 0 W/m 10,3 km/h (2 Bft)
05.02.2013 04:36 5,6 C 4,0 C 86 % 0 lf 1002,9 hPa 0,0 l/m 0 min 0,0 UV-I 0 W/m 33,5 km/h (5 Bft)
05.02.2013 04:38 5,5 C 4,0 C 86 % 0 lf 1002,8 hPa 0,0 l/m 0 min 0,0 UV-I 0 W/m 12,9 km/h (3 Bft)
05.02.2013 04:40 5,5 C 4,0 C 86 % 0 lf 1002,8 hPa 0,0 l/m 0 min 0,0 UV-I 0 W/m 12,9 km/h (3 Bft)
05.02.2013 04:42 5,5 C 4,0 C 86 % 0 lf 1002,8 hPa 0,0 l/m 0 min 0,0 UV-I 0 W/m 12,9 km/h (3 Bft)
05.02.2013 04:44 5,4 C 4,0 C 86 % 0 lf 1003,0 hPa 0,0 l/m 0 min 0,0 UV-I 0 W/m 20,6 km/h (4 Bft)
05.02.2013 04:46 5,4 C 4,0 C 86 % 0 lf 1002,9 hPa 0,0 l/m 0 min 0,0 UV-I 0 W/m 10,3 km/h (2 Bft)
05.02.2013 04:48 5,4 C 4,0 C 86 % 0 lf 1002,9 hPa 0,0 l/m 0 min 0,0 UV-I 0 W/m 12,9 km/h (3 Bft)
05.02.2013 04:50 5,4 C 4,0 C 86 % 0 lf 1002,8 hPa 0,0 l/m 0 min 0,0 UV-I 0 W/m 20,6 km/h (4 Bft)
05.02.2013 04:52 5,4 C 4,0 C 86 % 0 lf 1002,6 hPa 0,0 l/m 0 min 0,0 UV-I 0 W/m 15,4 km/h (3 Bft)
05.02.2013 04:54 5,4 C 4,0 C 86 % 0 lf 1002,4 hPa 0,0 l/m 0 min 0,0 UV-I 0 W/m 36,0 km/h (5 Bft)
05.02.2013 04:56 5,4 C 4,0 C 86 % 0 lf 1002,4 hPa 0,0 l/m 0 min 0,0 UV-I 0 W/m 10,3 km/h (2 Bft)
05.02.2013 04:58 5,4 C 4,0 C 86 % 0 lf 1002,4 hPa 0,0 l/m 0 min 0,0 UV-I 0 W/m 18,0 km/h (3 Bft)
05.02.2013 05:00 5,4 C 4,0 C 86 % 0 lf 1002,2 hPa 0,0 l/m 0 min 0,0 UV-I 0 W/m 15,4 km/h (3 Bft)
05.02.2013 05:02 5,4 C 4,0 C 86 % 0 lf 1002,3 hPa 0,0 l/m 0 min 0,0 UV-I 0 W/m 15,4 km/h (3 Bft)
05.02.2013 05:06 5,4 C 4,0 C 86 % 0 lf 1002,1 hPa 0,0 l/m 0 min 0,0 UV-I 0 W/m 18,0 km/h (3 Bft)
05.02.2013 05:08 5,4 C 4,0 C 86 % 0 lf 1002,2 hPa 0,0 l/m 0 min 0,0 UV-I 0 W/m 10,3 km/h (2 Bft)
05.02.2013 05:10 5,4 C 4,0 C 86 % 0 lf 1002,1 hPa 0,0 l/m 0 min 0,0 UV-I 0 W/m 28,3 km/h (4 Bft)
05.02.2013 05:12 5,4 C 4,0 C 86 % 0 lf 1001,9 hPa 0,0 l/m 0 min 0,0 UV-I 0 W/m 20,6 km/h (4 Bft)
05.02.2013 05:14 5,4 C 4,0 C 86 % 0 lf 1001,8 hPa 0,0 l/m 0 min 0,0 UV-I 0 W/m 18,0 km/h (3 Bft)
05.02.2013 05:16 5,3 C 4,0 C 86 % 0 lf 1001,9 hPa 0,0 l/m 0 min 0,0 UV-I 0 W/m 15,4 km/h (3 Bft)
05.02.2013 05:18 5,3 C 4,0 C 86 % 0 lf 1001,6 hPa 0,0 l/m 0 min 0,0 UV-I 0 W/m 12,9 km/h (3 Bft)
05.02.2013 05:20 5,3 C 4,0 C 86 % 0 lf 1001,6 hPa 0,0 l/m 0 min 0,0 UV-I 0 W/m 18,0 km/h (3 Bft)
05.02.2013 05:22 5,3 C 4,0 C 86 % 0 lf 1001,5 hPa 0,0 l/m 0 min 0,0 UV-I 0 W/m 12,9 km/h (3 Bft)
05.02.2013 05:24 5,3 C 4,0 C 86 % 0 lf 1001,5 hPa 0,0 l/m 0 min 0,0 UV-I 0 W/m 18,0 km/h (3 Bft)
05.02.2013 05:26 5,3 C 4,0 C 86 % 0 lf 1001,4 hPa 0,0 l/m 0 min 0,0 UV-I 0 W/m 20,6 km/h (4 Bft)
05.02.2013 05:28 5,3 C 4,0 C 86 % 0 lf 1001,4 hPa 0,0 l/m 0 min 0,0 UV-I 0 W/m 15,4 km/h (3 Bft)
05.02.2013 05:30 5,3 C 4,0 C 86 % 0 lf 1001,5 hPa 0,0 l/m 0 min 0,0 UV-I 0 W/m 33,5 km/h (5 Bft)
05.02.2013 05:32 5,3 C 4,0 C 86 % 0 lf 1001,3 hPa 0,0 l/m 0 min 0,0 UV-I 0 W/m 18,0 km/h (3 Bft)
05.02.2013 05:34 5,3 C 4,0 C 86 % 0 lf 1001,4 hPa 0,0 l/m 0 min 0,0 UV-I 0 W/m 28,3 km/h (4 Bft)
05.02.2013 05:36 5,3 C 4,0 C 86 % 0 lf 1001,0 hPa 0,0 l/m 0 min 0,0 UV-I 0 W/m 23,2 km/h (4 Bft)
05.02.2013 05:38 5,3 C 4,0 C 87 % 0 lf 1001,1 hPa 0,0 l/m 0 min 0,0 UV-I 0 W/m 20,6 km/h (4 Bft)
05.02.2013 05:40 5,3 C 4,0 C 87 % 0 lf 1000,9 hPa 0,0 l/m 0 min 0,0 UV-I 0 W/m 25,7 km/h (4 Bft)
05.02.2013 05:42 5,3 C 4,0 C 87 % 0 lf 1000,8 hPa 0,0 l/m 0 min 0,0 UV-I 0 W/m 20,6 km/h (4 Bft)
05.02.2013 05:44 5,3 C 4,0 C 86 % 0 lf 1000,7 hPa 0,0 l/m 0 min 0,0 UV-I 0 W/m 18,0 km/h (3 Bft)
05.02.2013 05:46 5,3 C 4,0 C 87 % 0 lf 1000,7 hPa 0,0 l/m 0 min 0,0 UV-I 0 W/m 28,3 km/h (4 Bft)
05.02.2013 05:48 5,3 C 4,0 C 87 % 0 lf 1000,8 hPa 0,0 l/m 0 min 0,0 UV-I 0 W/m 23,2 km/h (4 Bft)
05.02.2013 05:50 5,3 C 4,0 C 87 % 0 lf 1000,7 hPa 0,0 l/m 0 min 0,0 UV-I 0 W/m 15,4 km/h (3 Bft)
05.02.2013 05:52 5,3 C 4,0 C 87 % 0 lf 1000,6 hPa 0,0 l/m 0 min 0,0 UV-I 0 W/m 18,0 km/h (3 Bft)
05.02.2013 05:54 5,3 C 4,0 C 87 % 0 lf 1000,4 hPa 0,0 l/m 0 min 0,0 UV-I 0 W/m 30,9 km/h (5 Bft)
05.02.2013 05:56 5,3 C 4,0 C 87 % 0 lf 1000,2 hPa 0,0 l/m 0 min 0,0 UV-I 0 W/m 18,0 km/h (3 Bft)
05.02.2013 05:58 5,3 C 4,0 C 86 % 0 lf 1000,1 hPa 0,0 l/m 0 min 0,0 UV-I 0 W/m 30,9 km/h (5 Bft)
05.02.2013 06:00 5,3 C 4,0 C 87 % 0 lf 1000,0 hPa 0,0 l/m 0 min 0,0 UV-I 0 W/m 15,4 km/h (3 Bft)
05.02.2013 06:02 5,3 C 4,0 C 87 % 0 lf 1000,1 hPa 0,0 l/m 0 min 0,0 UV-I 0 W/m 33,5 km/h (5 Bft)
05.02.2013 06:06 5,3 C 4,0 C 86 % 0 lf 1000,0 hPa 0,0 l/m 0 min 0,0 UV-I 0 W/m 23,2 km/h (4 Bft)
05.02.2013 06:08 5,3 C 4,0 C 87 % 0 lf 1000,0 hPa 0,0 l/m 0 min 0,0 UV-I 0 W/m 46,3 km/h (6 Bft)
05.02.2013 06:10 5,3 C 4,0 C 87 % 0 lf 999,8 hPa 0,0 l/m 0 min 0,0 UV-I 0 W/m 25,7 km/h (4 Bft)
05.02.2013 06:12 5,3 C 4,0 C 87 % 0 lf 999,8 hPa 0,0 l/m 0 min 0,0 UV-I 0 W/m 20,6 km/h (4 Bft)
05.02.2013 06:14 5,3 C 4,0 C 87 % 0 lf 999,7 hPa 0,0 l/m 0 min 0,0 UV-I 0 W/m 25,7 km/h (4 Bft)
05.02.2013 06:16 5,3 C 4,0 C 87 % 0 lf 999,8 hPa 0,0 l/m 0 min 0,0 UV-I 0 W/m 23,2 km/h (4 Bft)
05.02.2013 06:18 5,3 C 4,0 C 87 % 0 lf 999,7 hPa 0,0 l/m 0 min 0,0 UV-I 0 W/m 15,4 km/h (3 Bft)
05.02.2013 06:20 5,3 C 4,0 C 86 % 0 lf 999,6 hPa 0,0 l/m 0 min 0,0 UV-I 0 W/m 15,4 km/h (3 Bft)
05.02.2013 06:22 5,3 C 4,0 C 86 % 0 lf 999,6 hPa 0,0 l/m 0 min 0,0 UV-I 0 W/m 23,2 km/h (4 Bft)
05.02.2013 06:24 5,3 C 4,0 C 86 % 0 lf 999,7 hPa 0,0 l/m 0 min 0,0 UV-I 0 W/m 18,0 km/h (3 Bft)
05.02.2013 06:26 5,3 C 4,0 C 86 % 0 lf 999,6 hPa 0,0 l/m 0 min 0,0 UV-I 0 W/m 28,3 km/h (4 Bft)
05.02.2013 06:28 5,4 C 4,0 C 86 % 0 lf 999,4 hPa 0,0 l/m 0 min 0,0 UV-I 0 W/m 18,0 km/h (3 Bft)
05.02.2013 06:30 5,4 C 4,0 C 86 % 0 lf 999,3 hPa 0,0 l/m 0 min 0,0 UV-I 0 W/m 20,6 km/h (4 Bft)
05.02.2013 06:32 5,5 C 4,0 C 86 % 0 lf 999,2 hPa 0,0 l/m 0 min 0,0 UV-I 0 W/m 33,5 km/h (5 Bft)
05.02.2013 06:34 5,5 C 4,6 C 86 % 0 lf 999,2 hPa 0,0 l/m 0 min 0,0 UV-I 0 W/m 28,3 km/h (4 Bft)
05.02.2013 06:36 5,6 C 4,6 C 86 % 0 lf 999,2 hPa 0,0 l/m 0 min 0,0 UV-I 0 W/m 18,0 km/h (3 Bft)
05.02.2013 06:38 5,6 C 4,6 C 86 % 0 lf 999,3 hPa 0,0 l/m 0 min 0,0 UV-I 0 W/m 28,3 km/h (4 Bft)
05.02.2013 06:40 5,6 C 4,6 C 86 % 0 lf 999,2 hPa 0,0 l/m 0 min 0,0 UV-I 0 W/m 28,3 km/h (4 Bft)
05.02.2013 06:42 5,6 C 4,6 C 86 % 0 lf 999,1 hPa 0,0 l/m 0 min 0,0 UV-I 0 W/m 30,9 km/h (5 Bft)
05.02.2013 06:44 5,6 C 4,6 C 86 % 0 lf 999,2 hPa 0,0 l/m 0 min 0,0 UV-I 0 W/m 28,3 km/h (4 Bft)
05.02.2013 06:46 5,6 C 4,6 C 86 % 0 lf 999,2 hPa 0,0 l/m 0 min 0,0 UV-I 0 W/m 28,3 km/h (4 Bft)
05.02.2013 06:48 5,6 C 4,6 C 86 % 0 lf 999,1 hPa 0,0 l/m 0 min 0,0 UV-I 0 W/m 25,7 km/h (4 Bft)
05.02.2013 06:50 5,6 C 4,6 C 86 % 0 lf 998,9 hPa 0,0 l/m 0 min 0,0 UV-I 0 W/m 41,2 km/h (6 Bft)
05.02.2013 06:52 5,7 C 4,6 C 86 % 0 lf 998,9 hPa 0,0 l/m 0 min 0,0 UV-I 0 W/m 36,0 km/h (5 Bft)
05.02.2013 06:54 5,6 C 4,6 C 86 % 1 lf 999,0 hPa 0,0 l/m 0 min 0,0 UV-I 0 W/m 20,6 km/h (4 Bft)
05.02.2013 06:56 5,7 C 4,6 C 86 % 15 lf 998,7 hPa 0,0 l/m 0 min 0,0 UV-I 0 W/m 25,7 km/h (4 Bft)
05.02.2013 06:58 5,7 C 4,6 C 87 % 15 lf 998,7 hPa 0,0 l/m 0 min 0,0 UV-I 0 W/m 18,0 km/h (3 Bft)
05.02.2013 07:00 5,7 C 4,0 C 87 % 15 lf 998,5 hPa 0,0 l/m 0 min 0,0 UV-I 0 W/m 15,4 km/h (3 Bft)
05.02.2013 07:02 5,6 C 4,0 C 87 % 15 lf 998,4 hPa 0,0 l/m 0 min 0,0 UV-I 0 W/m 23,2 km/h (4 Bft)
05.02.2013 07:06 5,6 C 4,0 C 88 % 15 lf 998,4 hPa 0,0 l/m 0 min 0,0 UV-I 0 W/m 25,7 km/h (4 Bft)
05.02.2013 07:08 5,6 C 4,0 C 88 % 15 lf 998,3 hPa 0,0 l/m 0 min 0,0 UV-I 0 W/m 20,6 km/h (4 Bft)
05.02.2013 07:10 5,6 C 4,0 C 88 % 15 lf 998,3 hPa 0,0 l/m 0 min 0,0 UV-I 0 W/m 36,0 km/h (5 Bft)
05.02.2013 07:12 5,6 C 4,0 C 88 % 15 lf 998,3 hPa 0,0 l/m 0 min 0,0 UV-I 0 W/m 12,9 km/h (3 Bft)
05.02.2013 07:14 5,5 C 4,0 C 88 % 15 lf 998,3 hPa 0,0 l/m 0 min 0,0 UV-I 0 W/m 23,2 km/h (4 Bft)
05.02.2013 07:16 5,5 C 4,0 C 88 % 15 lf 998,4 hPa 0,2 l/m 0 min 0,0 UV-I 0 W/m 28,3 km/h (4 Bft)
05.02.2013 07:18 5,5 C 3,4 C 89 % 15 lf 998,2 hPa 0,0 l/m 0 min 0,0 UV-I 0 W/m 20,6 km/h (4 Bft)
05.02.2013 07:20 5,4 C 3,4 C 89 % 15 lf 998,1 hPa 0,0 l/m 0 min 0,0 UV-I 0 W/m 23,2 km/h (4 Bft)
05.02.2013 07:22 5,4 C 3,4 C 89 % 15 lf 998,2 hPa 0,0 l/m 0 min 0,0 UV-I 0 W/m 28,3 km/h (4 Bft)
05.02.2013 07:24 5,4 C 3,4 C 90 % 15 lf 998,1 hPa 0,2 l/m 0 min 0,0 UV-I 0 W/m 20,6 km/h (4 Bft)
05.02.2013 07:26 5,3 C 2,9 C 90 % 15 lf 998,5 hPa 0,2 l/m 0 min 0,0 UV-I 0 W/m 38,6 km/h (5 Bft)
05.02.2013 07:28 5,2 C 2,9 C 90 % 14 lf 998,3 hPa 0,2 l/m 0 min 0,0 UV-I 0 W/m 30,9 km/h (5 Bft)
05.02.2013 07:30 5,2 C 2,9 C 90 % 13 lf 998,4 hPa 0,0 l/m 0 min 0,0 UV-I 0 W/m 28,3 km/h (4 Bft)
05.02.2013 07:32 5,1 C 2,9 C 91 % 11 lf 998,3 hPa 0,4 l/m 0 min 0,0 UV-I 0 W/m 38,6 km/h (5 Bft)
05.02.2013 07:34 5,0 C 2,9 C 91 % 11 lf 998,4 hPa 0,2 l/m 0 min 0,0 UV-I 0 W/m 33,5 km/h (5 Bft)
05.02.2013 07:36 4,9 C 2,9 C 91 % 11 lf 998,6 hPa 0,2 l/m 0 min 0,0 UV-I 0 W/m 18,0 km/h (3 Bft)
05.02.2013 07:38 4,8 C 2,9 C 92 % 8 lf 998,7 hPa 0,2 l/m 0 min 0,0 UV-I 0 W/m 25,7 km/h (4 Bft)
05.02.2013 07:40 4,7 C 2,3 C 91 % 8 lf 999,1 hPa 0,2 l/m 0 min 0,0 UV-I 0 W/m 59,2 km/h (7 Bft)
05.02.2013 07:42 4,5 C 2,3 C 92 % 5 lf 998,6 hPa 0,2 l/m 0 min 0,0 UV-I 0 W/m 28,3 km/h (4 Bft)
05.02.2013 07:44 4,3 C 2,3 C 92 % 4 lf 999,3 hPa 0,4 l/m 0 min 0,0 UV-I 0 W/m 43,8 km/h (6 Bft)
05.02.2013 07:46 4,1 C 1,8 C 92 % 5 lf 999,4 hPa 0,2 l/m 0 min 0,0 UV-I 0 W/m 38,6 km/h (5 Bft)
05.02.2013 07:48 3,9 C 1,8 C 92 % 5 lf 999,6 hPa 0,4 l/m 0 min 0,0 UV-I 0 W/m 38,6 km/h (5 Bft)
05.02.2013 07:50 3,7 C 1,8 C 92 % 8 lf 999,6 hPa 0,4 l/m 0 min 0,0 UV-I 0 W/m 28,3 km/h (4 Bft)
05.02.2013 07:52 3,6 C 1,2 C 93 % 7 lf 999,5 hPa 0,2 l/m 0 min 0,0 UV-I 0 W/m 12,9 km/h (3 Bft)
05.02.2013 07:54 3,4 C 1,2 C 93 % 7 lf 999,5 hPa 0,2 l/m 0 min 0,0 UV-I 0 W/m 23,2 km/h (4 Bft)
05.02.2013 07:56 3,3 C 1,2 C 93 % 6 lf 999,4 hPa 0,0 l/m 0 min 0,0 UV-I 0 W/m 18,0 km/h (3 Bft)
05.02.2013 07:58 3,2 C 1,2 C 93 % 5 lf 999,1 hPa 0,2 l/m 0 min 0,0 UV-I 0 W/m 23,2 km/h (4 Bft)
05.02.2013 08:00 3,1 C 1,2 C 94 % 6 lf 999,2 hPa 0,2 l/m 0 min 0,0 UV-I 0 W/m 15,4 km/h (3 Bft)
05.02.2013 08:02 2,9 C 1,2 C 93 % 7 lf 998,9 hPa 0,0 l/m 0 min 0,0 UV-I 0 W/m 12,9 km/h (3 Bft)
05.02.2013 08:04 2,9 C 1,2 C 94 % 9 lf 998,8 hPa 0,0 l/m 0 min 0,0 UV-I 0 W/m 15,4 km/h (3 Bft)
05.02.2013 08:08 2,7 C 1,2 C 94 % 10 lf 997,7 hPa 0,0 l/m 0 min 0,0 UV-I 0 W/m 12,9 km/h (3 Bft)
05.02.2013 08:10 2,7 C 1,2 C 94 % 11 lf 997,5 hPa 0,0 l/m 0 min 0,0 UV-I 0 W/m 7,7 km/h (2 Bft)
05.02.2013 08:12 2,7 C 1,2 C 94 % 12 lf 997,7 hPa 0,0 l/m 0 min 0,0 UV-I 0 W/m 0,0 km/h (0 Bft)
05.02.2013 08:14 2,6 C 0,7 C 94 % 12 lf 997,9 hPa 0,0 l/m 0 min 0,0 UV-I 0 W/m 7,7 km/h (2 Bft)
05.02.2013 08:16 2,6 C 0,7 C 94 % 12 lf 998,5 hPa 0,0 l/m 0 min 0,0 UV-I 0 W/m 7,7 km/h (2 Bft)
05.02.2013 08:18 2,5 C 1,2 C 95 % 12 lf 998,6 hPa 0,0 l/m 0 min 0,0 UV-I 5 W/m 10,3 km/h (2 Bft)
05.02.2013 08:20 2,4 C 1,2 C 95 % 12 lf 998,8 hPa 0,0 l/m 0 min 0,0 UV-I 5 W/m 10,3 km/h (2 Bft)
05.02.2013 08:22 2,4 C 1,2 C 95 % 13 lf 998,8 hPa 0,0 l/m 0 min 0,0 UV-I 5 W/m 15,4 km/h (3 Bft)
05.02.2013 08:24 2,4 C 1,2 C 95 % 13 lf 999,0 hPa 0,0 l/m 0 min 0,0 UV-I 5 W/m 15,4 km/h (3 Bft)
05.02.2013 08:26 2,4 C 1,2 C 95 % 13 lf 999,1 hPa 0,0 l/m 0 min 0,0 UV-I 0 W/m 10,3 km/h (2 Bft)
05.02.2013 08:28 2,4 C 1,2 C 95 % 13 lf 999,1 hPa 0,0 l/m 0 min 0,0 UV-I 0 W/m 20,6 km/h (4 Bft)
05.02.2013 08:30 2,3 C 1,2 C 96 % 13 lf 999,0 hPa 0,0 l/m 0 min 0,0 UV-I 0 W/m 18,0 km/h (3 Bft)
05.02.2013 08:32 2,4 C 1,2 C 96 % 13 lf 999,0 hPa 0,0 l/m 0 min 0,0 UV-I 5 W/m 18,0 km/h (3 Bft)
05.02.2013 08:34 2,3 C 1,2 C 96 % 13 lf 998,8 hPa 0,0 l/m 0 min 0,0 UV-I 7 W/m 5,1 km/h (1 Bft)
05.02.2013 08:36 2,4 C 1,2 C 96 % 13 lf 998,8 hPa 0,0 l/m 0 min 0,0 UV-I 11 W/m 12,9 km/h (3 Bft)
05.02.2013 08:38 2,4 C 1,2 C 96 % 13 lf 998,7 hPa 0,0 l/m 0 min 0,0 UV-I 16 W/m 7,7 km/h (2 Bft)
05.02.2013 08:40 2,4 C 1,2 C 96 % 13 lf 998,8 hPa 0,0 l/m 0 min 0,0 UV-I 18 W/m 10,3 km/h (2 Bft)
05.02.2013 08:42 2,4 C 1,2 C 96 % 13 lf 999,0 hPa 0,0 l/m 0 min 0,0 UV-I 18 W/m 10,3 km/h (2 Bft)
05.02.2013 08:44 2,4 C 1,2 C 96 % 13 lf 999,1 hPa 0,0 l/m 0 min 0,0 UV-I 12 W/m 10,3 km/h (2 Bft)
05.02.2013 08:46 2,5 C 1,2 C 96 % 13 lf 999,2 hPa 0,0 l/m 0 min 0,0 UV-I 12 W/m 20,6 km/h (4 Bft)
05.02.2013 08:48 2,6 C 1,2 C 97 % 13 lf 999,1 hPa 0,0 l/m 0 min 0,0 UV-I 14 W/m 18,0 km/h (3 Bft)
05.02.2013 08:50 2,6 C 1,2 C 97 % 13 lf 999,0 hPa 0,0 l/m 0 min 0,0 UV-I 14 W/m 10,3 km/h (2 Bft)
05.02.2013 08:52 2,6 C 1,8 C 97 % 13 lf 998,9 hPa 0,0 l/m 0 min 0,0 UV-I 16 W/m 18,0 km/h (3 Bft)
05.02.2013 08:54 2,7 C 1,8 C 97 % 13 lf 999,0 hPa 0,0 l/m 0 min 0,0 UV-I 18 W/m 15,4 km/h (3 Bft)
05.02.2013 08:56 2,7 C 1,8 C 97 % 12 lf 999,0 hPa 0,0 l/m 0 min 0,0 UV-I 19 W/m 15,4 km/h (3 Bft)
05.02.2013 08:58 2,7 C 1,8 C 97 % 12 lf 999,0 hPa 0,0 l/m 0 min 0,0 UV-I 18 W/m 12,9 km/h (3 Bft)
05.02.2013 09:00 2,8 C 1,8 C 97 % 12 lf 999,0 hPa 0,0 l/m 0 min 0,0 UV-I 16 W/m 10,3 km/h (2 Bft)
05.02.2013 09:02 2,8 C 1,8 C 97 % 12 lf 999,1 hPa 0,0 l/m 0 min 0,0 UV-I 21 W/m 15,4 km/h (3 Bft)
05.02.2013 09:06 2,9 C 1,8 C 97 % 12 lf 999,0 hPa 0,0 l/m 0 min 0,0 UV-I 25 W/m 18,0 km/h (3 Bft)
05.02.2013 09:08 2,9 C 1,8 C 97 % 12 lf 999,0 hPa 0,0 l/m 0 min 0,0 UV-I 18 W/m 18,0 km/h (3 Bft)
05.02.2013 09:10 2,9 C 1,8 C 97 % 11 lf 998,8 hPa 0,0 l/m 0 min 0,0 UV-I 16 W/m 23,2 km/h (4 Bft)
05.02.2013 09:12 3,0 C 1,8 C 97 % 11 lf 998,9 hPa 0,0 l/m 0 min 0,0 UV-I 16 W/m 12,9 km/h (3 Bft)
05.02.2013 09:14 3,1 C 1,8 C 97 % 11 lf 998,8 hPa 0,0 l/m 0 min 0,0 UV-I 18 W/m 20,6 km/h (4 Bft)
05.02.2013 09:16 3,1 C 1,8 C 97 % 11 lf 998,7 hPa 0,0 l/m 0 min 0,0 UV-I 18 W/m 10,3 km/h (2 Bft)
05.02.2013 09:18 3,1 C 1,8 C 97 % 10 lf 998,7 hPa 0,0 l/m 0 min 0,0 UV-I 21 W/m 18,0 km/h (3 Bft)
05.02.2013 09:20 3,1 C 1,8 C 97 % 10 lf 998,8 hPa 0,0 l/m 0 min 0,0 UV-I 23 W/m 15,4 km/h (3 Bft)
05.02.2013 09:22 3,2 C 1,8 C 97 % 10 lf 998,7 hPa 0,0 l/m 0 min 0,0 UV-I 30 W/m 23,2 km/h (4 Bft)
05.02.2013 09:24 3,2 C 1,8 C 97 % 9 lf 998,6 hPa 0,0 l/m 0 min 0,0 UV-I 30 W/m 33,5 km/h (5 Bft)
05.02.2013 09:26 3,2 C 1,8 C 97 % 8 lf 998,5 hPa 0,0 l/m 0 min 0,0 UV-I 26 W/m 23,2 km/h (4 Bft)
05.02.2013 09:28 3,2 C 1,8 C 97 % 7 lf 998,4 hPa 0,0 l/m 0 min 0,0 UV-I 25 W/m 20,6 km/h (4 Bft)
05.02.2013 09:30 3,3 C 1,8 C 97 % 7 lf 998,5 hPa 0,0 l/m 0 min 0,0 UV-I 25 W/m 18,0 km/h (3 Bft)
05.02.2013 09:32 3,3 C 1,8 C 97 % 6 lf 998,5 hPa 0,0 l/m 0 min 0,0 UV-I 30 W/m 20,6 km/h (4 Bft)
05.02.2013 09:34 3,3 C 1,8 C 97 % 5 lf 998,5 hPa 0,0 l/m 0 min 0,0 UV-I 35 W/m 28,3 km/h (4 Bft)
05.02.2013 09:36 3,3 C 1,8 C 97 % 6 lf 998,8 hPa 0,0 l/m 0 min 0,0 UV-I 25 W/m 25,7 km/h (4 Bft)
05.02.2013 09:38 3,3 C 1,8 C 96 % 4 lf 998,9 hPa 0,0 l/m 0 min 0,0 UV-I 33 W/m 41,2 km/h (6 Bft)
05.02.2013 09:40 3,3 C 1,8 C 96 % 4 lf 999,0 hPa 0,0 l/m 0 min 0,0 UV-I 35 W/m 23,2 km/h (4 Bft)
05.02.2013 09:42 3,3 C 1,8 C 96 % 3 lf 999,0 hPa 0,0 l/m 0 min 0,0 UV-I 32 W/m 25,7 km/h (4 Bft)
05.02.2013 09:44 3,3 C 1,8 C 95 % 6 lf 999,1 hPa 0,0 l/m 0 min 0,0 UV-I 30 W/m 38,6 km/h (5 Bft)
05.02.2013 09:46 3,2 C 1,8 C 95 % 4 lf 999,0 hPa 0,0 l/m 0 min 0,0 UV-I 25 W/m 43,8 km/h (6 Bft)
05.02.2013 09:48 3,2 C 1,2 C 95 % 4 lf 998,8 hPa 0,0 l/m 0 min 0,0 UV-I 33 W/m 25,7 km/h (4 Bft)
05.02.2013 09:50 3,1 C 1,2 C 94 % 4 lf 998,8 hPa 0,0 l/m 0 min 0,0 UV-I 49 W/m 28,3 km/h (4 Bft)
05.02.2013 09:52 2,9 C 1,2 C 94 % 3 lf 998,9 hPa 0,0 l/m 0 min 0,0 UV-I 62 W/m 25,7 km/h (4 Bft)
05.02.2013 09:54 2,9 C 1,2 C 94 % 3 lf 999,2 hPa 0,0 l/m 0 min 0,0 UV-I 46 W/m 25,7 km/h (4 Bft)
05.02.2013 09:56 2,8 C 1,2 C 94 % 3 lf 999,2 hPa 0,0 l/m 0 min 0,0 UV-I 35 W/m 15,4 km/h (3 Bft)
05.02.2013 09:58 2,8 C 1,2 C 94 % 3 lf 999,4 hPa 0,0 l/m 0 min 0,0 UV-I 19 W/m 25,7 km/h (4 Bft)
05.02.2013 10:00 2,8 C 1,2 C 94 % 3 lf 999,4 hPa 0,0 l/m 0 min 0,0 UV-I 23 W/m 20,6 km/h (4 Bft)
05.02.2013 10:02 2,8 C 1,2 C 94 % 3 lf 999,5 hPa 0,0 l/m 0 min 0,0 UV-I 33 W/m 18,0 km/h (3 Bft)
05.02.2013 10:06 2,7 C 1,2 C 94 % 3 lf 999,5 hPa 0,0 l/m 0 min 0,0 UV-I 26 W/m 15,4 km/h (3 Bft)
05.02.2013 10:08 2,8 C 1,2 C 94 % 2 lf 999,4 hPa 0,0 l/m 0 min 0,0 UV-I 35 W/m 20,6 km/h (4 Bft)
05.02.2013 10:10 2,8 C 1,2 C 94 % 2 lf 999,5 hPa 0,0 l/m 0 min 0,0 UV-I 32 W/m 23,2 km/h (4 Bft)
05.02.2013 10:12 2,8 C 1,2 C 94 % 2 lf 999,4 hPa 0,0 l/m 0 min 0,0 UV-I 35 W/m 23,2 km/h (4 Bft)
05.02.2013 10:14 2,8 C 1,2 C 94 % 2 lf 999,6 hPa 0,0 l/m 0 min 0,0 UV-I 44 W/m 10,3 km/h (2 Bft)
05.02.2013 10:16 2,8 C 1,8 C 94 % 2 lf 999,7 hPa 0,0 l/m 0 min 0,0 UV-I 63 W/m 30,9 km/h (5 Bft)
05.02.2013 10:18 2,8 C 1,8 C 94 % 2 lf 999,5 hPa 0,0 l/m 0 min 0,0 UV-I 65 W/m 10,3 km/h (2 Bft)
05.02.2013 10:20 2,8 C 1,8 C 94 % 2 lf 999,5 hPa 0,0 l/m 0 min 0,0 UV-I 33 W/m 23,2 km/h (4 Bft)
05.02.2013 10:22 2,9 C 1,2 C 94 % 2 lf 999,5 hPa 0,0 l/m 0 min 0,0 UV-I 18 W/m 15,4 km/h (3 Bft)
05.02.2013 10:24 2,9 C 1,2 C 94 % 2 lf 999,6 hPa 0,0 l/m 0 min 0,0 UV-I 18 W/m 12,9 km/h (3 Bft)
05.02.2013 10:26 2,9 C 1,8 C 94 % 2 lf 999,6 hPa 0,0 l/m 0 min 0,0 UV-I 16 W/m 7,7 km/h (2 Bft)
05.02.2013 10:28 2,9 C 1,8 C 94 % 2 lf 999,6 hPa 0,0 l/m 0 min 0,0 UV-I 16 W/m 7,7 km/h (2 Bft)
05.02.2013 10:30 2,9 C 1,8 C 94 % 2 lf 999,6 hPa 0,0 l/m 0 min 0,0 UV-I 16 W/m 15,4 km/h (3 Bft)
05.02.2013 10:32 2,9 C 1,2 C 94 % 2 lf 999,7 hPa 0,0 l/m 0 min 0,0 UV-I 12 W/m 12,9 km/h (3 Bft)
05.02.2013 10:34 2,9 C 1,2 C 94 % 2 lf 999,7 hPa 0,0 l/m 0 min 0,0 UV-I 18 W/m 15,4 km/h (3 Bft)
05.02.2013 10:36 2,9 C 1,2 C 94 % 2 lf 999,7 hPa 0,0 l/m 0 min 0,0 UV-I 23 W/m 7,7 km/h (2 Bft)
05.02.2013 10:38 2,9 C 1,2 C 94 % 2 lf 999,7 hPa 0,0 l/m 0 min 0,0 UV-I 21 W/m 23,2 km/h (4 Bft)
05.02.2013 10:40 2,9 C 1,2 C 94 % 2 lf 999,7 hPa 0,0 l/m 0 min 0,0 UV-I 18 W/m 28,3 km/h (4 Bft)
05.02.2013 10:42 2,9 C 1,2 C 94 % 1 lf 999,8 hPa 0,0 l/m 0 min 0,0 UV-I 18 W/m 18,0 km/h (3 Bft)
05.02.2013 10:44 2,8 C 1,2 C 94 % 1 lf 999,7 hPa 0,0 l/m 0 min 0,0 UV-I 56 W/m 15,4 km/h (3 Bft)
05.02.2013 10:46 2,8 C 1,2 C 94 % 1 lf 999,7 hPa 0,0 l/m 0 min 0,0 UV-I 54 W/m 15,4 km/h (3 Bft)
05.02.2013 10:48 2,8 C 1,2 C 94 % 1 lf 999,6 hPa 0,0 l/m 0 min 0,0 UV-I 25 W/m 23,2 km/h (4 Bft)
05.02.2013 10:50 2,8 C 1,2 C 93 % 1 lf 999,6 hPa 0,0 l/m 0 min 0,0 UV-I 23 W/m 20,6 km/h (4 Bft)
05.02.2013 10:52 2,8 C 1,2 C 93 % 1 lf 999,6 hPa 0,0 l/m 0 min 0,0 UV-I 21 W/m 18,0 km/h (3 Bft)
05.02.2013 10:54 2,8 C 1,2 C 93 % 1 lf 999,6 hPa 0,0 l/m 0 min 0,0 UV-I 26 W/m 18,0 km/h (3 Bft)
05.02.2013 10:56 2,8 C 1,2 C 93 % 0 lf 999,6 hPa 0,0 l/m 0 min 0,0 UV-I 30 W/m 18,0 km/h (3 Bft)
05.02.2013 10:58 2,8 C 1,2 C 93 % 0 lf 999,6 hPa 0,0 l/m 0 min 0,0 UV-I 42 W/m 20,6 km/h (4 Bft)
05.02.2013 11:00 2,8 C 1,2 C 93 % 0 lf 999,6 hPa 0,0 l/m 0 min 0,0 UV-I 40 W/m 12,9 km/h (3 Bft)
05.02.2013 11:02 2,7 C 1,2 C 92 % 0 lf 999,6 hPa 0,0 l/m 0 min 0,0 UV-I 95 W/m 36,0 km/h (5 Bft)
05.02.2013 11:06 2,7 C 1,2 C 92 % 0 lf 999,9 hPa 0,0 l/m 0 min 0,0 UV-I 90 W/m 28,3 km/h (4 Bft)
05.02.2013 11:08 2,7 C 1,2 C 92 % 0 lf 999,7 hPa 0,0 l/m 0 min 0,0 UV-I 118 W/m 15,4 km/h (3 Bft)
05.02.2013 11:10 2,7 C 1,2 C 92 % 0 lf 999,6 hPa 0,0 l/m 0 min 0,0 UV-I 167 W/m 12,9 km/h (3 Bft)
05.02.2013 11:12 2,8 C 1,8 C 92 % 0 lf 999,6 hPa 0,0 l/m 2 min 0,0 UV-I 373 W/m 25,7 km/h (4 Bft)
05.02.2013 11:14 2,9 C 1,8 C 93 % 0 lf 999,6 hPa 0,0 l/m 2 min 0,0 UV-I 411 W/m 15,4 km/h (3 Bft)
05.02.2013 11:16 3,0 C 2,3 C 93 % 0 lf 999,6 hPa 0,0 l/m 2 min 0,0 UV-I 415 W/m 12,9 km/h (3 Bft)
05.02.2013 11:18 3,2 C 2,3 C 93 % 0 lf 999,5 hPa 0,0 l/m 2 min 0,0 UV-I 425 W/m 15,4 km/h (3 Bft)
05.02.2013 11:20 3,3 C 2,3 C 93 % 0 lf 999,5 hPa 0,0 l/m 0 min 0,0 UV-I 169 W/m 12,9 km/h (3 Bft)
05.02.2013 11:22 3,3 C 2,3 C 93 % 0 lf 999,5 hPa 0,0 l/m 0 min 0,0 UV-I 151 W/m 15,4 km/h (3 Bft)
05.02.2013 11:24 3,4 C 2,3 C 92 % 0 lf 999,5 hPa 0,0 l/m 0 min 0,0 UV-I 151 W/m 12,9 km/h (3 Bft)
05.02.2013 11:26 3,4 C 1,8 C 92 % 0 lf 999,6 hPa 0,0 l/m 0 min 0,0 UV-I 167 W/m 15,4 km/h (3 Bft)
05.02.2013 11:28 3,5 C 2,3 C 92 % 0 lf 999,5 hPa 0,0 l/m 2 min 0,0 UV-I 241 W/m 10,3 km/h (2 Bft)
05.02.2013 11:30 3,6 C 2,3 C 92 % 0 lf 999,5 hPa 0,0 l/m 2 min 0,0 UV-I 308 W/m 5,1 km/h (1 Bft)
05.02.2013 11:32 3,7 C 2,3 C 92 % 0 lf 999,6 hPa 0,0 l/m 2 min 0,0 UV-I 373 W/m 20,6 km/h (4 Bft)
05.02.2013 11:34 3,7 C 2,3 C 92 % 0 lf 999,4 hPa 0,0 l/m 2 min 0,0 UV-I 207 W/m 10,3 km/h (2 Bft)
05.02.2013 11:36 3,8 C 2,3 C 91 % 0 lf 999,6 hPa 0,0 l/m 2 min 0,0 UV-I 262 W/m 23,2 km/h (4 Bft)
05.02.2013 11:38 3,8 C 2,3 C 91 % 0 lf 999,5 hPa 0,0 l/m 0 min 0,0 UV-I 127 W/m 20,6 km/h (4 Bft)
05.02.2013 11:40 3,8 C 2,3 C 91 % 0 lf 999,6 hPa 0,0 l/m 0 min 0,0 UV-I 114 W/m 18,0 km/h (3 Bft)
05.02.2013 11:42 3,8 C 2,3 C 90 % 0 lf 999,5 hPa 0,0 l/m 0 min 0,0 UV-I 121 W/m 15,4 km/h (3 Bft)
05.02.2013 11:44 3,8 C 2,3 C 90 % 0 lf 999,6 hPa 0,0 l/m 0 min 0,0 UV-I 135 W/m 28,3 km/h (4 Bft)
05.02.2013 11:46 3,8 C 2,3 C 89 % 0 lf 999,4 hPa 0,0 l/m 0 min 0,0 UV-I 134 W/m 20,6 km/h (4 Bft)
05.02.2013 11:48 3,8 C 2,3 C 89 % 0 lf 999,4 hPa 0,0 l/m 0 min 0,0 UV-I 137 W/m 25,7 km/h (4 Bft)
05.02.2013 11:50 3,8 C 2,3 C 89 % 0 lf 999,4 hPa 0,0 l/m 0 min 0,0 UV-I 128 W/m 20,6 km/h (4 Bft)
05.02.2013 11:52 3,8 C 2,3 C 88 % 0 lf 999,4 hPa 0,0 l/m 0 min 0,0 UV-I 109 W/m 25,7 km/h (4 Bft)
05.02.2013 11:54 3,8 C 2,3 C 88 % 0 lf 999,4 hPa 0,0 l/m 0 min 0,0 UV-I 84 W/m 30,9 km/h (5 Bft)
05.02.2013 11:56 3,8 C 1,8 C 88 % 0 lf 999,4 hPa 0,0 l/m 0 min 0,0 UV-I 76 W/m 30,9 km/h (5 Bft)
05.02.2013 11:58 3,8 C 1,8 C 88 % 0 lf 999,3 hPa 0,0 l/m 0 min 0,0 UV-I 86 W/m 28,3 km/h (4 Bft)
05.02.2013 12:00 3,7 C 1,8 C 88 % 0 lf 999,6 hPa 0,0 l/m 0 min 0,0 UV-I 97 W/m 18,0 km/h (3 Bft)
05.02.2013 12:02 3,7 C 2,3 C 88 % 0 lf 999,6 hPa 0,0 l/m 0 min 0,0 UV-I 120 W/m 38,6 km/h (5 Bft)
05.02.2013 12:06 3,8 C 2,9 C 87 % 0 lf 999,6 hPa 0,0 l/m 2 min 0,0 UV-I 450 W/m 20,6 km/h (4 Bft)
05.02.2013 12:08 3,8 C 2,9 C 87 % 0 lf 999,4 hPa 0,0 l/m 2 min 0,0 UV-I 459 W/m 30,9 km/h (5 Bft)
05.02.2013 12:10 3,9 C 2,9 C 85 % 0 lf 999,6 hPa 0,0 l/m 2 min 0,0 UV-I 432 W/m 30,9 km/h (5 Bft)
05.02.2013 12:12 4,0 C 2,9 C 85 % 0 lf 999,6 hPa 0,0 l/m 2 min 0,0 UV-I 432 W/m 28,3 km/h (4 Bft)
05.02.2013 12:14 4,1 C 2,9 C 84 % 0 lf 999,6 hPa 0,0 l/m 2 min 0,0 UV-I 381 W/m 23,2 km/h (4 Bft)
05.02.2013 12:16 4,1 C 2,9 C 83 % 0 lf 999,5 hPa 0,0 l/m 0 min 0,0 UV-I 176 W/m 36,0 km/h (5 Bft)
05.02.2013 12:18 4,0 C 2,9 C 83 % 0 lf 999,5 hPa 0,0 l/m 2 min 0,0 UV-I 248 W/m 36,0 km/h (5 Bft)
05.02.2013 12:20 4,0 C 2,9 C 83 % 0 lf 999,5 hPa 0,0 l/m 0 min 0,0 UV-I 181 W/m 20,6 km/h (4 Bft)
05.02.2013 12:22 3,9 C 2,9 C 82 % 0 lf 999,5 hPa 0,0 l/m 0 min 0,0 UV-I 158 W/m 38,6 km/h (5 Bft)
05.02.2013 12:24 3,8 C 2,3 C 82 % 0 lf 999,4 hPa 0,0 l/m 0 min 0,0 UV-I 120 W/m 18,0 km/h (3 Bft)
05.02.2013 12:26 3,8 C 2,3 C 83 % 0 lf 999,5 hPa 0,0 l/m 0 min 0,0 UV-I 107 W/m 12,9 km/h (3 Bft)
05.02.2013 12:28 3,8 C 2,3 C 83 % 0 lf 999,5 hPa 0,0 l/m 0 min 0,0 UV-I 102 W/m 25,7 km/h (4 Bft)
05.02.2013 12:30 3,7 C 2,3 C 84 % 0 lf 999,5 hPa 0,0 l/m 0 min 0,0 UV-I 93 W/m 30,9 km/h (5 Bft)
05.02.2013 12:32 3,6 C 2,3 C 84 % 0 lf 999,4 hPa 0,0 l/m 0 min 0,0 UV-I 97 W/m 28,3 km/h (4 Bft)
05.02.2013 12:34 3,5 C 2,3 C 84 % 0 lf 999,4 hPa 0,0 l/m 0 min 0,0 UV-I 100 W/m 33,5 km/h (5 Bft)
05.02.2013 12:36 3,4 C 2,3 C 85 % 0 lf 999,4 hPa 0,0 l/m 0 min 0,0 UV-I 98 W/m 18,0 km/h (3 Bft)
05.02.2013 12:38 3,3 C 2,3 C 85 % 0 lf 999,4 hPa 0,0 l/m 0 min 0,0 UV-I 95 W/m 20,6 km/h (4 Bft)
05.02.2013 12:40 3,3 C 2,3 C 86 % 0 lf 999,5 hPa 0,0 l/m 0 min 0,0 UV-I 95 W/m 15,4 km/h (3 Bft)
05.02.2013 12:42 3,3 C 2,3 C 86 % 0 lf 999,5 hPa 0,0 l/m 0 min 0,0 UV-I 81 W/m 30,9 km/h (5 Bft)
05.02.2013 12:44 3,2 C 2,3 C 86 % 0 lf 999,4 hPa 0,0 l/m 0 min 0,0 UV-I 72 W/m 20,6 km/h (4 Bft)
05.02.2013 12:46 3,2 C 2,3 C 86 % 0 lf 999,4 hPa 0,0 l/m 0 min 0,0 UV-I 74 W/m 25,7 km/h (4 Bft)
05.02.2013 12:48 3,2 C 2,3 C 86 % 0 lf 999,4 hPa 0,0 l/m 0 min 0,0 UV-I 86 W/m 10,3 km/h (2 Bft)
05.02.2013 12:50 3,2 C 2,3 C 87 % 0 lf 999,4 hPa 0,0 l/m 0 min 0,0 UV-I 95 W/m 12,9 km/h (3 Bft)
05.02.2013 12:52 3,2 C 2,3 C 87 % 0 lf 999,4 hPa 0,0 l/m 0 min 0,0 UV-I 98 W/m 12,9 km/h (3 Bft)
05.02.2013 12:54 3,2 C 2,3 C 87 % 0 lf 999,5 hPa 0,0 l/m 0 min 0,0 UV-I 109 W/m 10,3 km/h (2 Bft)
05.02.2013 12:56 3,2 C 2,3 C 87 % 0 lf 999,4 hPa 0,0 l/m 0 min 0,0 UV-I 113 W/m 15,4 km/h (3 Bft)
05.02.2013 12:58 3,2 C 2,3 C 87 % 0 lf 999,2 hPa 0,0 l/m 0 min 0,0 UV-I 109 W/m 10,3 km/h (2 Bft)
05.02.2013 13:00 3,2 C 2,3 C 87 % 0 lf 999,2 hPa 0,0 l/m 0 min 0,0 UV-I 86 W/m 25,7 km/h (4 Bft)
05.02.2013 13:02 3,2 C 2,3 C 87 % 0 lf 999,3 hPa 0,0 l/m 0 min 0,0 UV-I 76 W/m 15,4 km/h (3 Bft)
05.02.2013 13:06 3,2 C 2,3 C 87 % 0 lf 999,3 hPa 0,0 l/m 0 min 0,0 UV-I 88 W/m 15,4 km/h (3 Bft)
05.02.2013 13:08 3,3 C 2,3 C 87 % 0 lf 999,3 hPa 0,0 l/m 0 min 0,0 UV-I 93 W/m 15,4 km/h (3 Bft)
05.02.2013 13:10 3,3 C 2,9 C 87 % 0 lf 999,2 hPa 0,0 l/m 0 min 0,0 UV-I 95 W/m 12,9 km/h (3 Bft)
05.02.2013 13:12 3,3 C 2,9 C 87 % 0 lf 999,2 hPa 0,0 l/m 0 min 0,0 UV-I 88 W/m 20,6 km/h (4 Bft)
05.02.2013 13:14 3,3 C 2,9 C 87 % 0 lf 999,1 hPa 0,0 l/m 0 min 0,0 UV-I 83 W/m 10,3 km/h (2 Bft)
05.02.2013 13:16 3,3 C 2,9 C 87 % 0 lf 999,2 hPa 0,0 l/m 0 min 0,0 UV-I 91 W/m 10,3 km/h (2 Bft)
05.02.2013 13:18 3,4 C 2,9 C 87 % 0 lf 999,1 hPa 0,0 l/m 0 min 0,0 UV-I 120 W/m 7,7 km/h (2 Bft)
05.02.2013 13:20 3,4 C 2,9 C 87 % 0 lf 999,1 hPa 0,0 l/m 0 min 0,0 UV-I 139 W/m 2,6 km/h (1 Bft)
05.02.2013 13:22 3,5 C 3,4 C 87 % 0 lf 999,1 hPa 0,0 l/m 2 min 0,0 UV-I 246 W/m 10,3 km/h (2 Bft)
05.02.2013 13:24 3,6 C 3,4 C 88 % 1 lf 999,1 hPa 0,0 l/m 0 min 0,0 UV-I 207 W/m 15,4 km/h (3 Bft)
05.02.2013 13:26 3,7 C 3,4 C 87 % 0 lf 999,0 hPa 0,0 l/m 2 min 0,0 UV-I 244 W/m 25,7 km/h (4 Bft)
05.02.2013 13:28 3,7 C 3,4 C 87 % 0 lf 999,0 hPa 0,0 l/m 0 min 0,0 UV-I 141 W/m 20,6 km/h (4 Bft)
05.02.2013 13:30 3,8 C 3,4 C 86 % 0 lf 999,0 hPa 0,0 l/m 2 min 0,0 UV-I 404 W/m 25,7 km/h (4 Bft)
05.02.2013 13:32 3,8 C 3,4 C 85 % 0 lf 999,0 hPa 0,0 l/m 2 min 0,0 UV-I 431 W/m 18,0 km/h (3 Bft)
05.02.2013 13:34 3,9 C 4,0 C 85 % 0 lf 998,9 hPa 0,0 l/m 2 min 0,0 UV-I 403 W/m 15,4 km/h (3 Bft)
05.02.2013 13:36 4,1 C 4,0 C 85 % 0 lf 998,8 hPa 0,0 l/m 2 min 0,0 UV-I 434 W/m 7,7 km/h (2 Bft)
05.02.2013 13:38 4,2 C 4,6 C 85 % 0 lf 998,8 hPa 0,0 l/m 2 min 0,0 UV-I 431 W/m 20,6 km/h (4 Bft)
05.02.2013 13:40 4,3 C 4,6 C 85 % 0 lf 998,7 hPa 0,0 l/m 2 min 0,0 UV-I 461 W/m 18,0 km/h (3 Bft)
05.02.2013 13:42 4,5 C 4,6 C 83 % 0 lf 998,8 hPa 0,0 l/m 2 min 0,0 UV-I 455 W/m 25,7 km/h (4 Bft)
05.02.2013 13:44 4,6 C 4,6 C 83 % 0 lf 998,9 hPa 0,0 l/m 0 min 0,0 UV-I 181 W/m 23,2 km/h (4 Bft)
05.02.2013 13:46 4,7 C 4,6 C 81 % 0 lf 998,8 hPa 0,0 l/m 0 min 0,0 UV-I 148 W/m 28,3 km/h (4 Bft)
05.02.2013 13:48 4,7 C 4,0 C 81 % 0 lf 998,9 hPa 0,0 l/m 0 min 0,0 UV-I 146 W/m 18,0 km/h (3 Bft)
05.02.2013 13:50 4,7 C 4,0 C 80 % 0 lf 998,8 hPa 0,0 l/m 0 min 0,0 UV-I 174 W/m 18,0 km/h (3 Bft)
05.02.2013 13:52 4,7 C 4,0 C 80 % 0 lf 998,8 hPa 0,0 l/m 2 min 0,0 UV-I 239 W/m 23,2 km/h (4 Bft)
05.02.2013 13:54 4,7 C 4,6 C 80 % 0 lf 998,8 hPa 0,0 l/m 2 min 0,0 UV-I 265 W/m 25,7 km/h (4 Bft)
05.02.2013 13:56 4,7 C 4,6 C 80 % 0 lf 998,7 hPa 0,0 l/m 2 min 0,0 UV-I 234 W/m 28,3 km/h (4 Bft)
05.02.2013 13:58 4,8 C 4,6 C 79 % 0 lf 998,8 hPa 0,0 l/m 2 min 0,0 UV-I 311 W/m 18,0 km/h (3 Bft)
05.02.2013 14:00 4,8 C 4,0 C 78 % 0 lf 998,8 hPa 0,0 l/m 2 min 0,0 UV-I 371 W/m 12,9 km/h (3 Bft)
05.02.2013 14:02 4,8 C 4,0 C 78 % 2 lf 998,8 hPa 0,0 l/m 2 min 0,0 UV-I 392 W/m 12,9 km/h (3 Bft)
05.02.2013 14:06 4,8 C 4,6 C 78 % 0 lf 998,8 hPa 0,0 l/m 2 min 0,0 UV-I 471 W/m 30,9 km/h (5 Bft)
05.02.2013 14:08 4,8 C 4,6 C 79 % 0 lf 998,8 hPa 0,0 l/m 2 min 0,0 UV-I 452 W/m 23,2 km/h (4 Bft)
05.02.2013 14:10 4,9 C 4,6 C 79 % 0 lf 998,8 hPa 0,0 l/m 2 min 0,0 UV-I 429 W/m 20,6 km/h (4 Bft)
05.02.2013 14:12 4,9 C 4,6 C 78 % 0 lf 998,7 hPa 0,0 l/m 2 min 0,0 UV-I 383 W/m 10,3 km/h (2 Bft)
05.02.2013 14:14 5,0 C 4,6 C 78 % 0 lf 998,7 hPa 0,0 l/m 2 min 0,0 UV-I 404 W/m 18,0 km/h (3 Bft)
05.02.2013 14:16 5,1 C 4,6 C 78 % 0 lf 998,6 hPa 0,0 l/m 2 min 0,0 UV-I 392 W/m 15,4 km/h (3 Bft)
05.02.2013 14:18 5,0 C 4,0 C 76 % 0 lf 998,6 hPa 0,0 l/m 0 min 0,0 UV-I 137 W/m 36,0 km/h (5 Bft)
05.02.2013 14:20 4,9 C 4,0 C 76 % 0 lf 998,6 hPa 0,0 l/m 2 min 0,0 UV-I 197 W/m 15,4 km/h (3 Bft)
05.02.2013 14:22 4,8 C 4,0 C 76 % 0 lf 998,6 hPa 0,0 l/m 0 min 0,0 UV-I 151 W/m 10,3 km/h (2 Bft)
05.02.2013 14:24 4,8 C 4,0 C 76 % 0 lf 998,7 hPa 0,0 l/m 0 min 0,0 UV-I 134 W/m 18,0 km/h (3 Bft)
05.02.2013 14:26 4,8 C 3,4 C 76 % 0 lf 998,5 hPa 0,0 l/m 0 min 0,0 UV-I 113 W/m 18,0 km/h (3 Bft)
05.02.2013 14:28 4,7 C 3,4 C 75 % 0 lf 998,6 hPa 0,0 l/m 0 min 0,0 UV-I 128 W/m 12,9 km/h (3 Bft)
05.02.2013 14:30 4,6 C 3,4 C 75 % 0 lf 998,6 hPa 0,0 l/m 0 min 0,0 UV-I 137 W/m 5,1 km/h (1 Bft)
05.02.2013 14:32 4,6 C 3,4 C 77 % 0 lf 998,6 hPa 0,0 l/m 2 min 0,0 UV-I 202 W/m 10,3 km/h (2 Bft)
05.02.2013 14:34 4,6 C 3,4 C 78 % 0 lf 998,5 hPa 0,0 l/m 2 min 0,0 UV-I 202 W/m 12,9 km/h (3 Bft)
05.02.2013 14:36 4,5 C 3,4 C 78 % 0 lf 998,6 hPa 0,0 l/m 0 min 0,0 UV-I 125 W/m 23,2 km/h (4 Bft)
05.02.2013 14:38 4,4 C 3,4 C 79 % 0 lf 998,5 hPa 0,0 l/m 0 min 0,0 UV-I 113 W/m 20,6 km/h (4 Bft)
05.02.2013 14:40 4,3 C 2,9 C 79 % 0 lf 998,8 hPa 0,0 l/m 0 min 0,0 UV-I 128 W/m 15,4 km/h (3 Bft)
05.02.2013 14:42 4,2 C 2,9 C 80 % 0 lf 998,7 hPa 0,0 l/m 0 min 0,0 UV-I 151 W/m 18,0 km/h (3 Bft)
05.02.2013 14:44 4,2 C 2,9 C 80 % 0 lf 998,6 hPa 0,0 l/m 0 min 0,0 UV-I 169 W/m 18,0 km/h (3 Bft)
05.02.2013 14:46 4,1 C 3,4 C 81 % 0 lf 998,6 hPa 0,0 l/m 0 min 0,0 UV-I 172 W/m 5,1 km/h (1 Bft)
05.02.2013 14:48 4,1 C 3,4 C 81 % 1 lf 998,6 hPa 0,0 l/m 2 min 0,0 UV-I 207 W/m 18,0 km/h (3 Bft)
05.02.2013 14:50 4,1 C 3,4 C 82 % 3 lf 998,6 hPa 0,0 l/m 2 min 0,0 UV-I 301 W/m 7,7 km/h (2 Bft)
05.02.2013 14:52 4,1 C 3,4 C 82 % 0 lf 998,5 hPa 0,0 l/m 2 min 0,0 UV-I 234 W/m 20,6 km/h (4 Bft)
05.02.2013 14:54 4,1 C 3,4 C 83 % 0 lf 998,3 hPa 0,0 l/m 0 min 0,0 UV-I 165 W/m 15,4 km/h (3 Bft)
05.02.2013 14:56 4,1 C 2,9 C 83 % 0 lf 998,3 hPa 0,0 l/m 0 min 0,0 UV-I 160 W/m 10,3 km/h (2 Bft)
05.02.2013 14:58 4,1 C 2,9 C 83 % 0 lf 998,3 hPa 0,0 l/m 0 min 0,0 UV-I 121 W/m 5,1 km/h (1 Bft)
05.02.2013 15:00 4,0 C 2,9 C 83 % 0 lf 998,4 hPa 0,0 l/m 0 min 0,0 UV-I 148 W/m 7,7 km/h (2 Bft)
05.02.2013 15:02 4,0 C 2,9 C 83 % 0 lf 998,4 hPa 0,0 l/m 2 min 0,0 UV-I 172 W/m 10,3 km/h (2 Bft)
05.02.2013 15:04 3,9 C 2,9 C 83 % 0 lf 998,4 hPa 0,0 l/m 0 min 0,0 UV-I 130 W/m 18,0 km/h (3 Bft)
05.02.2013 15:08 3,8 C 2,3 C 83 % 0 lf 998,3 hPa 0,0 l/m 0 min 0,0 UV-I 146 W/m 12,9 km/h (3 Bft)
05.02.2013 15:10 3,8 C 2,3 C 83 % 0 lf 998,2 hPa 0,0 l/m 0 min 0,0 UV-I 141 W/m 12,9 km/h (3 Bft)
05.02.2013 15:12 3,7 C 2,3 C 83 % 0 lf 998,2 hPa 0,0 l/m 0 min 0,0 UV-I 125 W/m 12,9 km/h (3 Bft)
05.02.2013 15:14 3,7 C 2,3 C 84 % 0 lf 998,2 hPa 0,0 l/m 0 min 0,0 UV-I 141 W/m 0,0 km/h (0 Bft)
05.02.2013 15:16 3,7 C 2,3 C 84 % 0 lf 998,1 hPa 0,0 l/m 0 min 0,0 UV-I 109 W/m 5,1 km/h (1 Bft)
05.02.2013 15:18 3,7 C 2,3 C 84 % 0 lf 998,1 hPa 0,0 l/m 0 min 0,0 UV-I 97 W/m 5,1 km/h (1 Bft)
05.02.2013 15:20 3,7 C 2,3 C 84 % 0 lf 998,1 hPa 0,0 l/m 0 min 0,0 UV-I 134 W/m 10,3 km/h (2 Bft)
05.02.2013 15:22 3,6 C 2,3 C 84 % 0 lf 998,1 hPa 0,0 l/m 2 min 0,0 UV-I 153 W/m 12,9 km/h (3 Bft)
05.02.2013 15:24 3,6 C 2,3 C 84 % 0 lf 998,1 hPa 0,0 l/m 0 min 0,0 UV-I 125 W/m 7,7 km/h (2 Bft)
05.02.2013 15:26 3,6 C 2,3 C 84 % 0 lf 998,1 hPa 0,0 l/m 0 min 0,0 UV-I 97 W/m 5,1 km/h (1 Bft)
05.02.2013 15:28 3,6 C 2,3 C 84 % 0 lf 998,1 hPa 0,0 l/m 2 min 0,0 UV-I 149 W/m 7,7 km/h (2 Bft)
05.02.2013 15:30 3,5 C 2,3 C 84 % 0 lf 998,0 hPa 0,0 l/m 2 min 0,0 UV-I 155 W/m 7,7 km/h (2 Bft)
05.02.2013 15:32 3,5 C 2,3 C 84 % 0 lf 998,0 hPa 0,0 l/m 0 min 0,0 UV-I 72 W/m 12,9 km/h (3 Bft)
05.02.2013 15:34 3,5 C 2,3 C 84 % 0 lf 998,0 hPa 0,0 l/m 0 min 0,0 UV-I 67 W/m 2,6 km/h (1 Bft)
05.02.2013 15:36 3,5 C 2,3 C 84 % 0 lf 998,0 hPa 0,0 l/m 0 min 0,0 UV-I 70 W/m 7,7 km/h (2 Bft)
05.02.2013 15:38 3,5 C 2,3 C 85 % 0 lf 998,0 hPa 0,0 l/m 2 min 0,0 UV-I 153 W/m 10,3 km/h (2 Bft)
05.02.2013 15:40 3,4 C 2,3 C 84 % 0 lf 998,0 hPa 0,0 l/m 2 min 0,0 UV-I 139 W/m 7,7 km/h (2 Bft)
05.02.2013 15:42 3,4 C 2,3 C 84 % 0 lf 997,9 hPa 0,0 l/m 0 min 0,0 UV-I 104 W/m 10,3 km/h (2 Bft)
05.02.2013 15:44 3,4 C 2,3 C 85 % 0 lf 997,9 hPa 0,0 l/m 0 min 0,0 UV-I 53 W/m 10,3 km/h (2 Bft)
05.02.2013 15:46 3,4 C 2,3 C 85 % 0 lf 997,9 hPa 0,0 l/m 0 min 0,0 UV-I 51 W/m 2,6 km/h (1 Bft)
05.02.2013 15:48 3,3 C 2,3 C 85 % 0 lf 997,8 hPa 0,0 l/m 0 min 0,0 UV-I 44 W/m 7,7 km/h (2 Bft)
05.02.2013 15:50 3,3 C 1,8 C 85 % 0 lf 997,8 hPa 0,0 l/m 0 min 0,0 UV-I 40 W/m 0,0 km/h (0 Bft)
05.02.2013 15:52 3,3 C 1,8 C 85 % 0 lf 997,7 hPa 0,0 l/m 0 min 0,0 UV-I 40 W/m 5,1 km/h (1 Bft)
05.02.2013 15:54 3,3 C 1,8 C 85 % 0 lf 997,7 hPa 0,0 l/m 0 min 0,0 UV-I 42 W/m 7,7 km/h (2 Bft)
05.02.2013 15:56 3,2 C 1,8 C 85 % 0 lf 997,7 hPa 0,0 l/m 0 min 0,0 UV-I 44 W/m 7,7 km/h (2 Bft)
05.02.2013 15:58 3,2 C 1,8 C 85 % 0 lf 997,7 hPa 0,0 l/m 0 min 0,0 UV-I 44 W/m 2,6 km/h (1 Bft)
05.02.2013 16:00 3,2 C 1,8 C 85 % 0 lf 997,7 hPa 0,0 l/m 0 min 0,0 UV-I 42 W/m 0,0 km/h (0 Bft)
05.02.2013 16:02 3,2 C 1,8 C 86 % 0 lf 997,6 hPa 0,0 l/m 0 min 0,0 UV-I 42 W/m 0,0 km/h (0 Bft)
05.02.2013 16:06 3,1 C 1,8 C 86 % 0 lf 997,6 hPa 0,0 l/m 0 min 0,0 UV-I 42 W/m 7,7 km/h (2 Bft)
05.02.2013 16:08 3,1 C 1,8 C 86 % 0 lf 997,6 hPa 0,0 l/m 0 min 0,0 UV-I 44 W/m 5,1 km/h (1 Bft)
05.02.2013 16:10 3,0 C 1,8 C 86 % 0 lf 997,5 hPa 0,0 l/m 0 min 0,0 UV-I 46 W/m 5,1 km/h (1 Bft)
05.02.2013 16:12 3,0 C 1,8 C 86 % 0 lf 997,5 hPa 0,0 l/m 0 min 0,0 UV-I 47 W/m 7,7 km/h (2 Bft)
05.02.2013 16:14 3,0 C 1,8 C 86 % 0 lf 997,5 hPa 0,0 l/m 0 min 0,0 UV-I 47 W/m 0,0 km/h (0 Bft)
05.02.2013 16:16 3,0 C 1,8 C 86 % 0 lf 997,5 hPa 0,0 l/m 0 min 0,0 UV-I 46 W/m 2,6 km/h (1 Bft)
05.02.2013 16:18 2,9 C 1,8 C 86 % 0 lf 997,4 hPa 0,0 l/m 0 min 0,0 UV-I 44 W/m 2,6 km/h (1 Bft)
05.02.2013 16:20 2,9 C 1,8 C 86 % 0 lf 997,5 hPa 0,0 l/m 0 min 0,0 UV-I 42 W/m 0,0 km/h (0 Bft)
05.02.2013 16:22 2,9 C 1,8 C 85 % 0 lf 997,5 hPa 0,0 l/m 0 min 0,0 UV-I 44 W/m 10,3 km/h (2 Bft)
05.02.2013 16:24 2,9 C 1,8 C 85 % 0 lf 997,5 hPa 0,0 l/m 0 min 0,0 UV-I 44 W/m 7,7 km/h (2 Bft)
05.02.2013 16:26 2,9 C 1,8 C 85 % 0 lf 997,6 hPa 0,0 l/m 0 min 0,0 UV-I 42 W/m 7,7 km/h (2 Bft)
05.02.2013 16:28 2,9 C 1,8 C 85 % 0 lf 997,5 hPa 0,0 l/m 0 min 0,0 UV-I 42 W/m 10,3 km/h (2 Bft)
05.02.2013 16:30 2,9 C 1,8 C 85 % 0 lf 997,5 hPa 0,0 l/m 0 min 0,0 UV-I 40 W/m 5,1 km/h (1 Bft)
05.02.2013 16:32 2,9 C 1,8 C 85 % 0 lf 997,5 hPa 0,0 l/m 0 min 0,0 UV-I 39 W/m 7,7 km/h (2 Bft)
05.02.2013 16:34 2,9 C 1,8 C 85 % 0 lf 997,5 hPa 0,0 l/m 0 min 0,0 UV-I 39 W/m 5,1 km/h (1 Bft)
05.02.2013 16:36 2,9 C 1,8 C 85 % 0 lf 997,4 hPa 0,0 l/m 0 min 0,0 UV-I 40 W/m 0,0 km/h (0 Bft)
05.02.2013 16:38 2,9 C 1,8 C 85 % 0 lf 997,4 hPa 0,0 l/m 0 min 0,0 UV-I 39 W/m 5,1 km/h (1 Bft)
05.02.2013 16:40 2,9 C 1,8 C 85 % 0 lf 997,5 hPa 0,0 l/m 0 min 0,0 UV-I 39 W/m 7,7 km/h (2 Bft)
05.02.2013 16:42 2,9 C 1,8 C 85 % 0 lf 997,4 hPa 0,0 l/m 0 min 0,0 UV-I 35 W/m 10,3 km/h (2 Bft)
05.02.2013 16:44 2,9 C 1,8 C 85 % 0 lf 997,4 hPa 0,0 l/m 0 min 0,0 UV-I 33 W/m 5,1 km/h (1 Bft)
05.02.2013 16:46 2,9 C 1,8 C 85 % 0 lf 997,4 hPa 0,0 l/m 0 min 0,0 UV-I 30 W/m 5,1 km/h (1 Bft)
05.02.2013 16:48 2,9 C 1,8 C 84 % 0 lf 997,4 hPa 0,0 l/m 0 min 0,0 UV-I 28 W/m 12,9 km/h (3 Bft)
05.02.2013 16:50 2,9 C 1,8 C 84 % 0 lf 997,3 hPa 0,0 l/m 0 min 0,0 UV-I 26 W/m 12,9 km/h (3 Bft)
05.02.2013 16:52 2,9 C 1,8 C 84 % 0 lf 997,3 hPa 0,0 l/m 0 min 0,0 UV-I 26 W/m 5,1 km/h (1 Bft)
05.02.2013 16:54 2,9 C 1,8 C 83 % 0 lf 997,2 hPa 0,0 l/m 0 min 0,0 UV-I 25 W/m 5,1 km/h (1 Bft)
05.02.2013 16:56 2,9 C 1,8 C 83 % 0 lf 997,1 hPa 0,0 l/m 0 min 0,0 UV-I 23 W/m 7,7 km/h (2 Bft)
05.02.2013 16:58 2,9 C 1,8 C 83 % 0 lf 997,2 hPa 0,0 l/m 0 min 0,0 UV-I 19 W/m 10,3 km/h (2 Bft)
05.02.2013 17:00 2,9 C 1,8 C 83 % 0 lf 997,1 hPa 0,0 l/m 0 min 0,0 UV-I 19 W/m 10,3 km/h (2 Bft)
05.02.2013 17:02 2,9 C 1,8 C 83 % 0 lf 997,1 hPa 0,0 l/m 0 min 0,0 UV-I 18 W/m 0,0 km/h (0 Bft)
05.02.2013 17:05 2,8 C 1,8 C 83 % 0 lf 996,9 hPa 0,0 l/m 0 min 0,0 UV-I 18 W/m 12,9 km/h (3 Bft)
05.02.2013 17:06 2,8 C 1,8 C 83 % 0 lf 996,9 hPa 0,0 l/m 0 min 0,0 UV-I 18 W/m 10,3 km/h (2 Bft)
05.02.2013 17:08 2,8 C 1,8 C 83 % 0 lf 996,9 hPa 0,0 l/m 0 min 0,0 UV-I 18 W/m 15,4 km/h (3 Bft)
05.02.2013 17:10 2,8 C 1,8 C 83 % 0 lf 996,9 hPa 0,0 l/m 0 min 0,0 UV-I 18 W/m 7,7 km/h (2 Bft)
05.02.2013 17:12 2,8 C 1,8 C 83 % 0 lf 996,9 hPa 0,0 l/m 0 min 0,0 UV-I 18 W/m 5,1 km/h (1 Bft)
05.02.2013 17:14 2,8 C 1,2 C 83 % 0 lf 996,9 hPa 0,0 l/m 0 min 0,0 UV-I 18 W/m 7,7 km/h (2 Bft)
05.02.2013 17:16 2,8 C 1,2 C 83 % 0 lf 996,9 hPa 0,0 l/m 0 min 0,0 UV-I 16 W/m 5,1 km/h (1 Bft)
05.02.2013 17:18 2,8 C 1,2 C 83 % 0 lf 996,8 hPa 0,0 l/m 0 min 0,0 UV-I 16 W/m 7,7 km/h (2 Bft)
05.02.2013 17:20 2,8 C 1,2 C 83 % 0 lf 996,8 hPa 0,0 l/m 0 min 0,0 UV-I 14 W/m 0,0 km/h (0 Bft)
05.02.2013 17:22 2,8 C 1,2 C 83 % 0 lf 996,8 hPa 0,0 l/m 0 min 0,0 UV-I 14 W/m 2,6 km/h (1 Bft)
05.02.2013 17:24 2,8 C 1,2 C 83 % 0 lf 996,7 hPa 0,0 l/m 0 min 0,0 UV-I 12 W/m 0,0 km/h (0 Bft)
05.02.2013 17:26 2,7 C 1,2 C 83 % 0 lf 996,7 hPa 0,0 l/m 0 min 0,0 UV-I 11 W/m 7,7 km/h (2 Bft)
05.02.2013 17:28 2,7 C 1,2 C 83 % 0 lf 996,7 hPa 0,0 l/m 0 min 0,0 UV-I 9 W/m 7,7 km/h (2 Bft)
05.02.2013 17:30 2,7 C 1,2 C 83 % 0 lf 996,8 hPa 0,0 l/m 0 min 0,0 UV-I 5 W/m 5,1 km/h (1 Bft)
05.02.2013 17:32 2,7 C 1,2 C 83 % 0 lf 996,7 hPa 0,0 l/m 0 min 0,0 UV-I 0 W/m 0,0 km/h (0 Bft)
05.02.2013 17:34 2,6 C 1,2 C 83 % 0 lf 996,6 hPa 0,0 l/m 0 min 0,0 UV-I 0 W/m 7,7 km/h (2 Bft)
05.02.2013 17:36 2,6 C 1,2 C 82 % 0 lf 996,6 hPa 0,0 l/m 0 min 0,0 UV-I 0 W/m 23,2 km/h (4 Bft)
05.02.2013 17:38 2,6 C 1,2 C 82 % 0 lf 996,6 hPa 0,0 l/m 0 min 0,0 UV-I 0 W/m 10,3 km/h (2 Bft)
05.02.2013 17:40 2,6 C 1,2 C 82 % 0 lf 996,8 hPa 0,0 l/m 0 min 0,0 UV-I 0 W/m 15,4 km/h (3 Bft)
05.02.2013 17:42 2,6 C 1,2 C 82 % 0 lf 996,8 hPa 0,0 l/m 0 min 0,0 UV-I 0 W/m 18,0 km/h (3 Bft)
05.02.2013 17:44 2,6 C 1,2 C 82 % 0 lf 996,9 hPa 0,0 l/m 0 min 0,0 UV-I 0 W/m 20,6 km/h (4 Bft)
05.02.2013 17:46 2,6 C 1,2 C 82 % 0 lf 997,0 hPa 0,0 l/m 0 min 0,0 UV-I 0 W/m 30,9 km/h (5 Bft)
05.02.2013 17:48 2,5 C 1,2 C 82 % 0 lf 996,9 hPa 0,0 l/m 0 min 0,0 UV-I 0 W/m 18,0 km/h (3 Bft)
05.02.2013 17:50 2,4 C 0,7 C 82 % 0 lf 996,8 hPa 0,0 l/m 0 min 0,0 UV-I 0 W/m 15,4 km/h (3 Bft)
05.02.2013 17:52 2,3 C 0,7 C 82 % 0 lf 996,7 hPa 0,0 l/m 0 min 0,0 UV-I 0 W/m 10,3 km/h (2 Bft)
05.02.2013 17:54 2,3 C 0,7 C 82 % 0 lf 996,7 hPa 0,0 l/m 0 min 0,0 UV-I 0 W/m 12,9 km/h (3 Bft)
05.02.2013 17:56 2,3 C 0,7 C 83 % 0 lf 996,7 hPa 0,0 l/m 0 min 0,0 UV-I 0 W/m 7,7 km/h (2 Bft)
05.02.2013 17:58 2,2 C 0,7 C 83 % 0 lf 996,6 hPa 0,0 l/m 0 min 0,0 UV-I 0 W/m 10,3 km/h (2 Bft)
05.02.2013 18:00 2,2 C 0,7 C 83 % 0 lf 996,7 hPa 0,0 l/m 0 min 0,0 UV-I 0 W/m 7,7 km/h (2 Bft)
05.02.2013 18:02 2,1 C 0,7 C 83 % 0 lf 996,8 hPa 0,0 l/m 0 min 0,0 UV-I 0 W/m 10,3 km/h (2 Bft)
05.02.2013 18:06 2,0 C 0,7 C 83 % 0 lf 996,8 hPa 0,0 l/m 0 min 0,0 UV-I 0 W/m 7,7 km/h (2 Bft)
05.02.2013 18:08 2,0 C 0,7 C 83 % 0 lf 996,8 hPa 0,0 l/m 0 min 0,0 UV-I 0 W/m 7,7 km/h (2 Bft)
05.02.2013 18:10 1,9 C 0,7 C 83 % 0 lf 996,8 hPa 0,0 l/m 0 min 0,0 UV-I 0 W/m 7,7 km/h (2 Bft)
05.02.2013 18:12 1,9 C 0,7 C 84 % 0 lf 996,8 hPa 0,0 l/m 0 min 0,0 UV-I 0 W/m 5,1 km/h (1 Bft)
05.02.2013 18:14 1,9 C 0,7 C 84 % 0 lf 996,9 hPa 0,0 l/m 0 min 0,0 UV-I 0 W/m 2,6 km/h (1 Bft)
05.02.2013 18:16 1,9 C 0,7 C 84 % 0 lf 996,8 hPa 0,0 l/m 0 min 0,0 UV-I 0 W/m 5,1 km/h (1 Bft)
05.02.2013 18:18 1,9 C 0,7 C 84 % 0 lf 996,9 hPa 0,0 l/m 0 min 0,0 UV-I 0 W/m 2,6 km/h (1 Bft)
05.02.2013 18:20 1,9 C 0,7 C 84 % 0 lf 996,9 hPa 0,0 l/m 0 min 0,0 UV-I 0 W/m 2,6 km/h (1 Bft)
05.02.2013 18:22 1,9 C 0,7 C 84 % 0 lf 997,0 hPa 0,0 l/m 0 min 0,0 UV-I 0 W/m 5,1 km/h (1 Bft)
05.02.2013 18:24 1,9 C 0,7 C 84 % 0 lf 997,0 hPa 0,0 l/m 0 min 0,0 UV-I 0 W/m 0,0 km/h (0 Bft)
05.02.2013 18:26 1,8 C 0,7 C 85 % 0 lf 997,0 hPa 0,0 l/m 0 min 0,0 UV-I 0 W/m 0,0 km/h (0 Bft)
05.02.2013 18:28 1,8 C 0,7 C 85 % 0 lf 997,0 hPa 0,0 l/m 0 min 0,0 UV-I 0 W/m 2,6 km/h (1 Bft)
05.02.2013 18:30 1,8 C 0,7 C 85 % 0 lf 997,0 hPa 0,0 l/m 0 min 0,0 UV-I 0 W/m 2,6 km/h (1 Bft)
05.02.2013 18:32 1,8 C 0,7 C 85 % 0 lf 997,0 hPa 0,0 l/m 0 min 0,0 UV-I 0 W/m 0,0 km/h (0 Bft)
05.02.2013 18:34 1,8 C 0,7 C 85 % 0 lf 997,0 hPa 0,0 l/m 0 min 0,0 UV-I 0 W/m 5,1 km/h (1 Bft)
05.02.2013 18:36 1,8 C 0,7 C 86 % 0 lf 997,0 hPa 0,0 l/m 0 min 0,0 UV-I 0 W/m 2,6 km/h (1 Bft)
05.02.2013 18:38 1,8 C 0,7 C 86 % 0 lf 997,0 hPa 0,0 l/m 0 min 0,0 UV-I 0 W/m 7,7 km/h (2 Bft)
05.02.2013 18:40 1,8 C 0,7 C 86 % 0 lf 997,0 hPa 0,0 l/m 0 min 0,0 UV-I 0 W/m 0,0 km/h (0 Bft)
05.02.2013 18:42 1,8 C 0,7 C 87 % 0 lf 997,0 hPa 0,0 l/m 0 min 0,0 UV-I 0 W/m 5,1 km/h (1 Bft)
05.02.2013 18:44 1,8 C 0,7 C 87 % 0 lf 997,0 hPa 0,0 l/m 0 min 0,0 UV-I 0 W/m 10,3 km/h (2 Bft)
05.02.2013 18:46 1,8 C 0,7 C 87 % 0 lf 996,8 hPa 0,0 l/m 0 min 0,0 UV-I 0 W/m 12,9 km/h (3 Bft)
05.02.2013 18:48 1,8 C 0,7 C 88 % 0 lf 996,8 hPa 0,0 l/m 0 min 0,0 UV-I 0 W/m 12,9 km/h (3 Bft)
05.02.2013 18:50 1,9 C 0,7 C 88 % 0 lf 996,8 hPa 0,0 l/m 0 min 0,0 UV-I 0 W/m 7,7 km/h (2 Bft)
05.02.2013 18:52 1,9 C 0,7 C 88 % 0 lf 996,9 hPa 0,0 l/m 0 min 0,0 UV-I 0 W/m 10,3 km/h (2 Bft)
05.02.2013 18:54 1,9 C 0,7 C 88 % 0 lf 996,9 hPa 0,0 l/m 0 min 0,0 UV-I 0 W/m 2,6 km/h (1 Bft)
05.02.2013 18:56 1,9 C 0,7 C 88 % 0 lf 996,8 hPa 0,0 l/m 0 min 0,0 UV-I 0 W/m 5,1 km/h (1 Bft)
05.02.2013 18:58 1,9 C 0,7 C 88 % 0 lf 996,9 hPa 0,0 l/m 0 min 0,0 UV-I 0 W/m 0,0 km/h (0 Bft)
05.02.2013 19:00 1,9 C 0,7 C 89 % 0 lf 996,9 hPa 0,0 l/m 0 min 0,0 UV-I 0 W/m 10,3 km/h (2 Bft)
05.02.2013 19:02 1,9 C 0,7 C 89 % 0 lf 996,9 hPa 0,0 l/m 0 min 0,0 UV-I 0 W/m 2,6 km/h (1 Bft)
05.02.2013 19:06 1,9 C 0,7 C 89 % 0 lf 997,0 hPa 0,0 l/m 0 min 0,0 UV-I 0 W/m 5,1 km/h (1 Bft)
05.02.2013 19:08 1,9 C 0,7 C 89 % 0 lf 997,0 hPa 0,0 l/m 0 min 0,0 UV-I 0 W/m 7,7 km/h (2 Bft)
05.02.2013 19:10 1,9 C 0,7 C 89 % 0 lf 997,0 hPa 0,0 l/m 0 min 0,0 UV-I 0 W/m 10,3 km/h (2 Bft)
05.02.2013 19:12 1,9 C 0,7 C 90 % 0 lf 997,1 hPa 0,0 l/m 0 min 0,0 UV-I 0 W/m 10,3 km/h (2 Bft)
05.02.2013 19:14 1,9 C 0,7 C 90 % 0 lf 997,1 hPa 0,0 l/m 0 min 0,0 UV-I 0 W/m 2,6 km/h (1 Bft)
05.02.2013 19:16 1,9 C 0,7 C 90 % 0 lf 997,1 hPa 0,0 l/m 0 min 0,0 UV-I 0 W/m 7,7 km/h (2 Bft)
05.02.2013 19:18 1,9 C 0,7 C 90 % 0 lf 997,0 hPa 0,0 l/m 0 min 0,0 UV-I 0 W/m 5,1 km/h (1 Bft)
05.02.2013 19:20 1,9 C 0,7 C 90 % 0 lf 997,0 hPa 0,0 l/m 0 min 0,0 UV-I 0 W/m 18,0 km/h (3 Bft)
05.02.2013 19:22 1,9 C 0,7 C 90 % 0 lf 997,0 hPa 0,0 l/m 0 min 0,0 UV-I 0 W/m 5,1 km/h (1 Bft)
05.02.2013 19:24 1,9 C 0,7 C 90 % 0 lf 997,0 hPa 0,0 l/m 0 min 0,0 UV-I 0 W/m 7,7 km/h (2 Bft)
05.02.2013 19:26 1,9 C 0,7 C 90 % 0 lf 997,1 hPa 0,0 l/m 0 min 0,0 UV-I 0 W/m 10,3 km/h (2 Bft)
05.02.2013 19:28 1,9 C 0,7 C 90 % 0 lf 997,1 hPa 0,0 l/m 0 min 0,0 UV-I 0 W/m 10,3 km/h (2 Bft)
05.02.2013 19:30 1,9 C 0,7 C 90 % 0 lf 997,1 hPa 0,0 l/m 0 min 0,0 UV-I 0 W/m 5,1 km/h (1 Bft)
05.02.2013 19:32 1,9 C 0,7 C 90 % 0 lf 997,0 hPa 0,0 l/m 0 min 0,0 UV-I 0 W/m 2,6 km/h (1 Bft)
05.02.2013 19:34 1,8 C 0,7 C 90 % 0 lf 997,0 hPa 0,0 l/m 0 min 0,0 UV-I 0 W/m 12,9 km/h (3 Bft)
05.02.2013 19:36 1,8 C 0,7 C 90 % 0 lf 997,0 hPa 0,0 l/m 0 min 0,0 UV-I 0 W/m 7,7 km/h (2 Bft)
05.02.2013 19:38 1,8 C 0,7 C 90 % 0 lf 997,1 hPa 0,0 l/m 0 min 0,0 UV-I 0 W/m 10,3 km/h (2 Bft)
05.02.2013 19:40 1,8 C 0,1 C 90 % 0 lf 997,1 hPa 0,0 l/m 0 min 0,0 UV-I 0 W/m 12,9 km/h (3 Bft)
05.02.2013 19:42 1,8 C 0,1 C 90 % 0 lf 997,1 hPa 0,0 l/m 0 min 0,0 UV-I 0 W/m 7,7 km/h (2 Bft)
05.02.2013 19:44 1,8 C 0,1 C 90 % 0 lf 997,1 hPa 0,0 l/m 0 min 0,0 UV-I 0 W/m 10,3 km/h (2 Bft)
05.02.2013 19:46 1,7 C 0,1 C 90 % 0 lf 997,1 hPa 0,0 l/m 0 min 0,0 UV-I 0 W/m 5,1 km/h (1 Bft)
05.02.2013 19:48 1,7 C 0,1 C 90 % 0 lf 997,2 hPa 0,0 l/m 0 min 0,0 UV-I 0 W/m 10,3 km/h (2 Bft)
05.02.2013 19:50 1,7 C 0,1 C 91 % 0 lf 997,1 hPa 0,0 l/m 0 min 0,0 UV-I 0 W/m 7,7 km/h (2 Bft)
05.02.2013 19:52 1,7 C 0,7 C 91 % 0 lf 997,1 hPa 0,0 l/m 0 min 0,0 UV-I 0 W/m 15,4 km/h (3 Bft)
05.02.2013 19:54 1,7 C 0,7 C 91 % 0 lf 997,2 hPa 0,0 l/m 0 min 0,0 UV-I 0 W/m 5,1 km/h (1 Bft)
05.02.2013 19:56 1,7 C 0,7 C 91 % 0 lf 997,2 hPa 0,0 l/m 0 min 0,0 UV-I 0 W/m 7,7 km/h (2 Bft)
05.02.2013 19:58 1,7 C 0,1 C 91 % 0 lf 997,1 hPa 0,0 l/m 0 min 0,0 UV-I 0 W/m 5,1 km/h (1 Bft)
05.02.2013 20:00 1,6 C 0,1 C 91 % 0 lf 997,2 hPa 0,0 l/m 0 min 0,0 UV-I 0 W/m 10,3 km/h (2 Bft)
05.02.2013 20:02 1,6 C 0,1 C 91 % 0 lf 997,2 hPa 0,0 l/m 0 min 0,0 UV-I 0 W/m 15,4 km/h (3 Bft)
05.02.2013 20:06 1,6 C 0,1 C 91 % 0 lf 997,2 hPa 0,0 l/m 0 min 0,0 UV-I 0 W/m 15,4 km/h (3 Bft)
05.02.2013 20:08 1,6 C 0,7 C 91 % 0 lf 997,1 hPa 0,0 l/m 0 min 0,0 UV-I 0 W/m 2,6 km/h (1 Bft)
05.02.2013 20:10 1,6 C 0,1 C 91 % 0 lf 997,1 hPa 0,0 l/m 0 min 0,0 UV-I 0 W/m 0,0 km/h (0 Bft)
05.02.2013 20:12 1,6 C 0,1 C 91 % 0 lf 997,1 hPa 0,0 l/m 0 min 0,0 UV-I 0 W/m 7,7 km/h (2 Bft)
05.02.2013 20:14 1,6 C 0,7 C 91 % 0 lf 997,1 hPa 0,0 l/m 0 min 0,0 UV-I 0 W/m 7,7 km/h (2 Bft)
05.02.2013 20:16 1,6 C 0,1 C 92 % 0 lf 997,1 hPa 0,0 l/m 0 min 0,0 UV-I 0 W/m 5,1 km/h (1 Bft)
05.02.2013 20:18 1,6 C 0,1 C 92 % 0 lf 997,1 hPa 0,0 l/m 0 min 0,0 UV-I 0 W/m 10,3 km/h (2 Bft)
05.02.2013 20:20 1,6 C 0,1 C 92 % 0 lf 997,1 hPa 0,0 l/m 0 min 0,0 UV-I 0 W/m 7,7 km/h (2 Bft)
05.02.2013 20:22 1,5 C 0,1 C 92 % 0 lf 997,1 hPa 0,0 l/m 0 min 0,0 UV-I 0 W/m 15,4 km/h (3 Bft)
05.02.2013 20:24 1,5 C 0,1 C 92 % 0 lf 997,2 hPa 0,0 l/m 0 min 0,0 UV-I 0 W/m 15,4 km/h (3 Bft)
05.02.2013 20:26 1,5 C 0,1 C 92 % 0 lf 997,1 hPa 0,0 l/m 0 min 0,0 UV-I 0 W/m 10,3 km/h (2 Bft)
05.02.2013 20:28 1,5 C 0,1 C 92 % 0 lf 997,1 hPa 0,0 l/m 0 min 0,0 UV-I 0 W/m 12,9 km/h (3 Bft)
05.02.2013 20:30 1,4 C 0,1 C 92 % 0 lf 997,2 hPa 0,0 l/m 0 min 0,0 UV-I 0 W/m 7,7 km/h (2 Bft)
05.02.2013 20:32 1,4 C 0,1 C 92 % 0 lf 997,1 hPa 0,0 l/m 0 min 0,0 UV-I 0 W/m 10,3 km/h (2 Bft)
05.02.2013 20:34 1,4 C 0,1 C 92 % 0 lf 997,2 hPa 0,0 l/m 0 min 0,0 UV-I 0 W/m 5,1 km/h (1 Bft)
05.02.2013 20:36 1,4 C 0,1 C 92 % 0 lf 997,2 hPa 0,0 l/m 0 min 0,0 UV-I 0 W/m 10,3 km/h (2 Bft)
05.02.2013 20:38 1,4 C 0,1 C 92 % 0 lf 997,1 hPa 0,0 l/m 0 min 0,0 UV-I 0 W/m 7,7 km/h (2 Bft)
05.02.2013 20:40 1,3 C 0,1 C 92 % 0 lf 997,1 hPa 0,0 l/m 0 min 0,0 UV-I 0 W/m 10,3 km/h (2 Bft)
05.02.2013 20:42 1,3 C 0,1 C 92 % 0 lf 997,1 hPa 0,0 l/m 0 min 0,0 UV-I 0 W/m 12,9 km/h (3 Bft)
05.02.2013 20:44 1,3 C 0,1 C 92 % 0 lf 997,1 hPa 0,0 l/m 0 min 0,0 UV-I 0 W/m 0,0 km/h (0 Bft)
05.02.2013 20:46 1,3 C 0,1 C 92 % 0 lf 997,1 hPa 0,0 l/m 0 min 0,0 UV-I 0 W/m 5,1 km/h (1 Bft)
05.02.2013 20:48 1,3 C 0,1 C 92 % 0 lf 997,1 hPa 0,0 l/m 0 min 0,0 UV-I 0 W/m 5,1 km/h (1 Bft)
05.02.2013 20:50 1,3 C 0,1 C 92 % 0 lf 997,2 hPa 0,0 l/m 0 min 0,0 UV-I 0 W/m 12,9 km/h (3 Bft)
05.02.2013 20:52 1,3 C 0,1 C 93 % 0 lf 997,2 hPa 0,0 l/m 0 min 0,0 UV-I 0 W/m 10,3 km/h (2 Bft)
05.02.2013 20:54 1,3 C 0,1 C 93 % 0 lf 997,1 hPa 0,0 l/m 0 min 0,0 UV-I 0 W/m 18,0 km/h (3 Bft)
05.02.2013 20:56 1,3 C 0,1 C 93 % 0 lf 997,1 hPa 0,0 l/m 0 min 0,0 UV-I 0 W/m 10,3 km/h (2 Bft)
05.02.2013 20:58 1,3 C 0,1 C 93 % 0 lf 997,2 hPa 0,0 l/m 0 min 0,0 UV-I 0 W/m 7,7 km/h (2 Bft)
05.02.2013 21:00 1,3 C 0,1 C 93 % 0 lf 997,2 hPa 0,0 l/m 0 min 0,0 UV-I 0 W/m 10,3 km/h (2 Bft)
05.02.2013 21:02 1,3 C 0,1 C 93 % 0 lf 997,2 hPa 0,0 l/m 0 min 0,0 UV-I 0 W/m 12,9 km/h (3 Bft)
05.02.2013 21:06 1,3 C 0,1 C 93 % 0 lf 997,2 hPa 0,0 l/m 0 min 0,0 UV-I 0 W/m 10,3 km/h (2 Bft)
05.02.2013 21:08 1,3 C 0,1 C 93 % 0 lf 997,2 hPa 0,0 l/m 0 min 0,0 UV-I 0 W/m 0,0 km/h (0 Bft)
05.02.2013 21:10 1,3 C 0,7 C 93 % 0 lf 997,1 hPa 0,0 l/m 0 min 0,0 UV-I 0 W/m 10,3 km/h (2 Bft)
05.02.2013 21:12 1,3 C 0,7 C 93 % 0 lf 997,1 hPa 0,0 l/m 0 min 0,0 UV-I 0 W/m 2,6 km/h (1 Bft)
05.02.2013 21:14 1,3 C 0,1 C 93 % 0 lf 997,1 hPa 0,0 l/m 0 min 0,0 UV-I 0 W/m 5,1 km/h (1 Bft)
05.02.2013 21:16 1,3 C 0,1 C 93 % 0 lf 997,1 hPa 0,0 l/m 0 min 0,0 UV-I 0 W/m 7,7 km/h (2 Bft)
05.02.2013 21:18 1,3 C 0,1 C 93 % 0 lf 997,1 hPa 0,0 l/m 0 min 0,0 UV-I 0 W/m 2,6 km/h (1 Bft)
05.02.2013 21:20 1,3 C 0,1 C 93 % 0 lf 997,1 hPa 0,0 l/m 0 min 0,0 UV-I 0 W/m 0,0 km/h (0 Bft)
05.02.2013 21:22 1,3 C 0,1 C 93 % 0 lf 997,1 hPa 0,0 l/m 0 min 0,0 UV-I 0 W/m 5,1 km/h (1 Bft)
05.02.2013 21:24 1,3 C 0,1 C 93 % 0 lf 997,2 hPa 0,0 l/m 0 min 0,0 UV-I 0 W/m 7,7 km/h (2 Bft)
05.02.2013 21:26 1,3 C 0,1 C 93 % 0 lf 997,2 hPa 0,0 l/m 0 min 0,0 UV-I 0 W/m 7,7 km/h (2 Bft)
05.02.2013 21:28 1,3 C 0,1 C 93 % 0 lf 997,1 hPa 0,0 l/m 0 min 0,0 UV-I 0 W/m 12,9 km/h (3 Bft)
05.02.2013 21:30 1,3 C 0,1 C 93 % 0 lf 997,1 hPa 0,0 l/m 0 min 0,0 UV-I 0 W/m 0,0 km/h (0 Bft)
05.02.2013 21:32 1,3 C 0,1 C 93 % 0 lf 997,1 hPa 0,0 l/m 0 min 0,0 UV-I 0 W/m 7,7 km/h (2 Bft)
05.02.2013 21:34 1,3 C 0,1 C 93 % 0 lf 997,0 hPa 0,0 l/m 0 min 0,0 UV-I 0 W/m 7,7 km/h (2 Bft)
05.02.2013 21:36 1,3 C 0,1 C 93 % 0 lf 997,1 hPa 0,0 l/m 0 min 0,0 UV-I 0 W/m 0,0 km/h (0 Bft)
05.02.2013 21:38 1,3 C 0,1 C 93 % 0 lf 997,2 hPa 0,0 l/m 0 min 0,0 UV-I 0 W/m 7,7 km/h (2 Bft)
05.02.2013 21:40 1,3 C 0,1 C 93 % 0 lf 997,2 hPa 0,0 l/m 0 min 0,0 UV-I 0 W/m 2,6 km/h (1 Bft)
05.02.2013 21:42 1,3 C 0,1 C 93 % 0 lf 997,2 hPa 0,0 l/m 0 min 0,0 UV-I 0 W/m 7,7 km/h (2 Bft)
05.02.2013 21:44 1,3 C 0,1 C 93 % 0 lf 997,1 hPa 0,0 l/m 0 min 0,0 UV-I 0 W/m 7,7 km/h (2 Bft)
05.02.2013 21:46 1,3 C 0,1 C 93 % 0 lf 997,0 hPa 0,0 l/m 0 min 0,0 UV-I 0 W/m 0,0 km/h (0 Bft)
05.02.2013 21:48 1,3 C 0,1 C 93 % 0 lf 997,0 hPa 0,0 l/m 0 min 0,0 UV-I 0 W/m 2,6 km/h (1 Bft)
05.02.2013 21:50 1,3 C 0,1 C 93 % 0 lf 997,1 hPa 0,0 l/m 0 min 0,0 UV-I 0 W/m 10,3 km/h (2 Bft)
05.02.2013 21:52 1,3 C 0,1 C 93 % 0 lf 997,0 hPa 0,0 l/m 0 min 0,0 UV-I 0 W/m 7,7 km/h (2 Bft)
05.02.2013 21:54 1,3 C 0,1 C 93 % 0 lf 997,0 hPa 0,0 l/m 0 min 0,0 UV-I 0 W/m 12,9 km/h (3 Bft)
05.02.2013 21:56 1,3 C 0,1 C 93 % 0 lf 997,0 hPa 0,0 l/m 0 min 0,0 UV-I 0 W/m 5,1 km/h (1 Bft)
05.02.2013 21:58 1,3 C 0,1 C 93 % 0 lf 997,0 hPa 0,0 l/m 0 min 0,0 UV-I 0 W/m 5,1 km/h (1 Bft)
05.02.2013 22:00 1,3 C 0,1 C 93 % 0 lf 997,0 hPa 0,0 l/m 0 min 0,0 UV-I 0 W/m 0,0 km/h (0 Bft)
05.02.2013 22:02 1,3 C 0,1 C 93 % 0 lf 997,0 hPa 0,0 l/m 0 min 0,0 UV-I 0 W/m 10,3 km/h (2 Bft)
05.02.2013 22:06 1,2 C 0,1 C 93 % 0 lf 997,0 hPa 0,0 l/m 0 min 0,0 UV-I 0 W/m 7,7 km/h (2 Bft)
05.02.2013 22:08 1,2 C 0,1 C 93 % 0 lf 997,0 hPa 0,0 l/m 0 min 0,0 UV-I 0 W/m 7,7 km/h (2 Bft)
05.02.2013 22:10 1,2 C 0,1 C 93 % 0 lf 997,1 hPa 0,0 l/m 0 min 0,0 UV-I 0 W/m 5,1 km/h (1 Bft)
05.02.2013 22:12 1,2 C 0,1 C 93 % 0 lf 997,1 hPa 0,0 l/m 0 min 0,0 UV-I 0 W/m 5,1 km/h (1 Bft)
05.02.2013 22:14 1,2 C 0,1 C 93 % 0 lf 997,0 hPa 0,0 l/m 0 min 0,0 UV-I 0 W/m 2,6 km/h (1 Bft)
05.02.2013 22:16 1,2 C -0,4 C 93 % 0 lf 997,1 hPa 0,0 l/m 0 min 0,0 UV-I 0 W/m 5,1 km/h (1 Bft)
05.02.2013 22:18 1,2 C -0,4 C 93 % 0 lf 997,1 hPa 0,0 l/m 0 min 0,0 UV-I 0 W/m 0,0 km/h (0 Bft)
05.02.2013 22:20 1,2 C -0,4 C 93 % 0 lf 997,1 hPa 0,0 l/m 0 min 0,0 UV-I 0 W/m 7,7 km/h (2 Bft)
05.02.2013 22:22 1,2 C 0,1 C 93 % 0 lf 997,0 hPa 0,0 l/m 0 min 0,0 UV-I 0 W/m 2,6 km/h (1 Bft)
05.02.2013 22:24 1,2 C 0,1 C 93 % 0 lf 997,0 hPa 0,0 l/m 0 min 0,0 UV-I 0 W/m 5,1 km/h (1 Bft)
05.02.2013 22:26 1,2 C 0,1 C 93 % 0 lf 997,0 hPa 0,0 l/m 0 min 0,0 UV-I 0 W/m 7,7 km/h (2 Bft)
05.02.2013 22:28 1,2 C 0,1 C 93 % 0 lf 997,0 hPa 0,0 l/m 0 min 0,0 UV-I 0 W/m 0,0 km/h (0 Bft)
05.02.2013 22:30 1,1 C -0,4 C 93 % 0 lf 997,0 hPa 0,0 l/m 0 min 0,0 UV-I 0 W/m 2,6 km/h (1 Bft)
05.02.2013 22:32 1,1 C -0,4 C 93 % 0 lf 997,0 hPa 0,0 l/m 0 min 0,0 UV-I 0 W/m 0,0 km/h (0 Bft)
05.02.2013 22:34 1,1 C -0,4 C 93 % 0 lf 997,0 hPa 0,0 l/m 0 min 0,0 UV-I 0 W/m 5,1 km/h (1 Bft)
05.02.2013 22:36 1,1 C 0,1 C 93 % 0 lf 996,9 hPa 0,0 l/m 0 min 0,0 UV-I 0 W/m 2,6 km/h (1 Bft)
05.02.2013 22:38 1,1 C -0,4 C 93 % 0 lf 996,9 hPa 0,0 l/m 0 min 0,0 UV-I 0 W/m 2,6 km/h (1 Bft)
05.02.2013 22:40 1,1 C 0,1 C 93 % 0 lf 996,9 hPa 0,0 l/m 0 min 0,0 UV-I 0 W/m 12,9 km/h (3 Bft)
05.02.2013 22:42 1,1 C 0,1 C 93 % 0 lf 996,9 hPa 0,0 l/m 0 min 0,0 UV-I 0 W/m 10,3 km/h (2 Bft)
05.02.2013 22:44 1,1 C 0,1 C 93 % 0 lf 996,9 hPa 0,0 l/m 0 min 0,0 UV-I 0 W/m 0,0 km/h (0 Bft)
05.02.2013 22:46 1,1 C 0,1 C 93 % 0 lf 996,8 hPa 0,0 l/m 0 min 0,0 UV-I 0 W/m 5,1 km/h (1 Bft)
05.02.2013 22:48 1,1 C 0,1 C 93 % 0 lf 996,9 hPa 0,0 l/m 0 min 0,0 UV-I 0 W/m 10,3 km/h (2 Bft)
05.02.2013 22:50 1,1 C 0,1 C 93 % 0 lf 996,9 hPa 0,0 l/m 0 min 0,0 UV-I 0 W/m 0,0 km/h (0 Bft)
05.02.2013 22:52 1,1 C 0,1 C 93 % 0 lf 996,9 hPa 0,0 l/m 0 min 0,0 UV-I 0 W/m 12,9 km/h (3 Bft)
05.02.2013 22:54 1,1 C 0,1 C 93 % 0 lf 996,8 hPa 0,0 l/m 0 min 0,0 UV-I 0 W/m 2,6 km/h (1 Bft)
05.02.2013 22:56 1,1 C 0,1 C 93 % 0 lf 996,8 hPa 0,0 l/m 0 min 0,0 UV-I 0 W/m 5,1 km/h (1 Bft)
05.02.2013 22:58 1,1 C 0,1 C 93 % 0 lf 996,8 hPa 0,0 l/m 0 min 0,0 UV-I 0 W/m 5,1 km/h (1 Bft)
05.02.2013 23:00 1,1 C 0,1 C 93 % 0 lf 996,9 hPa 0,0 l/m 0 min 0,0 UV-I 0 W/m 15,4 km/h (3 Bft)
05.02.2013 23:02 1,1 C 0,1 C 93 % 0 lf 996,8 hPa 0,0 l/m 0 min 0,0 UV-I 0 W/m 12,9 km/h (3 Bft)
05.02.2013 23:06 1,1 C 0,1 C 93 % 0 lf 996,9 hPa 0,0 l/m 0 min 0,0 UV-I 0 W/m 12,9 km/h (3 Bft)
05.02.2013 23:08 1,1 C 0,1 C 93 % 0 lf 996,8 hPa 0,0 l/m 0 min 0,0 UV-I 0 W/m 18,0 km/h (3 Bft)
05.02.2013 23:10 1,2 C 0,1 C 93 % 0 lf 996,8 hPa 0,0 l/m 0 min 0,0 UV-I 0 W/m 12,9 km/h (3 Bft)
05.02.2013 23:12 1,2 C 0,1 C 93 % 0 lf 996,7 hPa 0,0 l/m 0 min 0,0 UV-I 0 W/m 12,9 km/h (3 Bft)
05.02.2013 23:14 1,2 C 0,1 C 93 % 0 lf 996,7 hPa 0,0 l/m 0 min 0,0 UV-I 0 W/m 15,4 km/h (3 Bft)
05.02.2013 23:16 1,2 C 0,1 C 93 % 0 lf 996,7 hPa 0,0 l/m 0 min 0,0 UV-I 0 W/m 2,6 km/h (1 Bft)
05.02.2013 23:18 1,2 C 0,1 C 93 % 0 lf 996,7 hPa 0,0 l/m 0 min 0,0 UV-I 0 W/m 15,4 km/h (3 Bft)
05.02.2013 23:20 1,2 C 0,1 C 93 % 0 lf 996,7 hPa 0,0 l/m 0 min 0,0 UV-I 0 W/m 10,3 km/h (2 Bft)
05.02.2013 23:22 1,2 C 0,1 C 93 % 0 lf 996,7 hPa 0,0 l/m 0 min 0,0 UV-I 0 W/m 15,4 km/h (3 Bft)
05.02.2013 23:24 1,2 C 0,1 C 93 % 0 lf 996,7 hPa 0,0 l/m 0 min 0,0 UV-I 0 W/m 12,9 km/h (3 Bft)
05.02.2013 23:26 1,2 C 0,1 C 93 % 0 lf 996,6 hPa 0,0 l/m 0 min 0,0 UV-I 0 W/m 10,3 km/h (2 Bft)
05.02.2013 23:28 1,2 C 0,1 C 93 % 0 lf 996,6 hPa 0,0 l/m 0 min 0,0 UV-I 0 W/m 7,7 km/h (2 Bft)
05.02.2013 23:30 1,2 C 0,1 C 93 % 0 lf 996,5 hPa 0,0 l/m 0 min 0,0 UV-I 0 W/m 0,0 km/h (0 Bft)
05.02.2013 23:32 1,3 C 0,1 C 92 % 0 lf 996,5 hPa 0,0 l/m 0 min 0,0 UV-I 0 W/m 5,1 km/h (1 Bft)
05.02.2013 23:34 1,3 C 0,1 C 92 % 0 lf 996,5 hPa 0,0 l/m 0 min 0,0 UV-I 0 W/m 10,3 km/h (2 Bft)
05.02.2013 23:36 1,3 C 0,1 C 92 % 0 lf 996,5 hPa 0,0 l/m 0 min 0,0 UV-I 0 W/m 10,3 km/h (2 Bft)
05.02.2013 23:38 1,3 C 0,1 C 92 % 0 lf 996,5 hPa 0,0 l/m 0 min 0,0 UV-I 0 W/m 18,0 km/h (3 Bft)
05.02.2013 23:40 1,3 C 0,1 C 92 % 0 lf 996,5 hPa 0,0 l/m 0 min 0,0 UV-I 0 W/m 2,6 km/h (1 Bft)
05.02.2013 23:42 1,3 C 0,1 C 92 % 0 lf 996,4 hPa 0,0 l/m 0 min 0,0 UV-I 0 W/m 5,1 km/h (1 Bft)
05.02.2013 23:44 1,3 C 0,1 C 92 % 0 lf 996,4 hPa 0,0 l/m 0 min 0,0 UV-I 0 W/m 10,3 km/h (2 Bft)
05.02.2013 23:46 1,3 C 0,1 C 92 % 0 lf 996,4 hPa 0,0 l/m 0 min 0,0 UV-I 0 W/m 10,3 km/h (2 Bft)
05.02.2013 23:48 1,3 C 0,1 C 92 % 0 lf 996,4 hPa 0,0 l/m 0 min 0,0 UV-I 0 W/m 10,3 km/h (2 Bft)
05.02.2013 23:50 1,3 C 0,1 C 92 % 0 lf 996,4 hPa 0,0 l/m 0 min 0,0 UV-I 0 W/m 10,3 km/h (2 Bft)
05.02.2013 23:52 1,3 C 0,1 C 92 % 0 lf 996,4 hPa 0,0 l/m 0 min 0,0 UV-I 0 W/m 10,3 km/h (2 Bft)
05.02.2013 23:54 1,3 C 0,1 C 92 % 0 lf 996,4 hPa 0,0 l/m 0 min 0,0 UV-I 0 W/m 10,3 km/h (2 Bft)
05.02.2013 23:56 1,3 C 0,1 C 92 % 0 lf 996,4 hPa 0,0 l/m 0 min 0,0 UV-I 0 W/m 5,1 km/h (1 Bft)
05.02.2013 23:58 1,3 C 0,1 C 92 % 0 lf 996,3 hPa 0,0 l/m 0 min 0,0 UV-I 0 W/m 18,0 km/h (3 Bft)
_ Min-Zeit 22:26 22:16 14:28 00:00 23:58 - - - - 08:12
Minimum _ 1,1 C -0,4 C 75 % 0 lf 996,3 hPa - - - - 0,0 km/h (0 Bft)
_ Max-Zeit 00:00 00:00 08:48 06:56 00:00 07:32 11:12 00:00 14:06 07:40
Maximum _ 6,3 C 4,6 C 97 % 15 lf 1008,2 hPa 0,4 l/m 2 min 0,0 UV-I 471 W/m 59,2 km/h
S-SO (7 Bft)
Durchschnitt _ 3,6 C 2,4 C 88 % 1 lf 999,8 hPa #4,4 l/m #1:36 h 0,0 UV-I 114 W/m 15,1 km/h (3 Bft)
© 2013 W. Hausmann